Wetterdaten: Dienstag, 11.06.2019
Datum Zeit Temp. Aussen Temp. o. S. +5cm Feuchte Auss Luftdruck Regen Sonnenschein Regendauer Solar Windben Empfang
11.06.2019 00:00 15,6 C 14,4 C 13,9 C 95 % 1010,8 hPa 0,0 l/m 0 min 0 min 0 W/m 0,0 km/h (0 Bft) 97,87 %
11.06.2019 00:02 15,6 C 14,4 C 13,9 C 95 % 1010,8 hPa 0,0 l/m 0 min 0 min 0 W/m 0,0 km/h (0 Bft) 97,50 %
11.06.2019 00:04 15,6 C 13,9 C 13,9 C 95 % 1010,8 hPa 0,0 l/m 0 min 0 min 0 W/m 0,0 km/h (0 Bft) 97,87 %
11.06.2019 00:07 15,6 C 13,9 C 13,9 C 95 % 1010,7 hPa 0,0 l/m 0 min 0 min 0 W/m 0,0 km/h (0 Bft) 97,14 %
11.06.2019 00:08 15,6 C 13,9 C 13,9 C 95 % 1010,7 hPa 0,0 l/m 0 min 0 min 0 W/m 0,0 km/h (0 Bft) 100,00 %
11.06.2019 00:10 15,6 C 13,9 C 13,9 C 95 % 1010,7 hPa 0,0 l/m 0 min 0 min 0 W/m 0,0 km/h (0 Bft) 97,87 %
11.06.2019 00:12 15,6 C 13,9 C 13,9 C 95 % 1010,8 hPa 0,0 l/m 0 min 0 min 0 W/m 0,0 km/h (0 Bft) 97,87 %
11.06.2019 00:14 15,6 C 13,9 C 13,9 C 95 % 1010,7 hPa 0,0 l/m 0 min 0 min 0 W/m 0,0 km/h (0 Bft) 97,87 %
11.06.2019 00:16 15,6 C 13,9 C 13,9 C 95 % 1010,7 hPa 0,0 l/m 0 min 0 min 0 W/m 0,0 km/h (0 Bft) 100,00 %
11.06.2019 00:18 15,6 C 13,9 C 13,9 C 95 % 1010,7 hPa 0,0 l/m 0 min 0 min 0 W/m 0,0 km/h (0 Bft) 100,00 %
11.06.2019 00:20 15,5 C 13,9 C 13,9 C 95 % 1010,7 hPa 0,0 l/m 0 min 0 min 0 W/m 3,2 km/h (1 Bft) 97,87 %
11.06.2019 00:22 15,5 C 14,4 C 13,9 C 95 % 1010,7 hPa 0,0 l/m 0 min 0 min 0 W/m 0,0 km/h (0 Bft) 100,00 %
11.06.2019 00:24 15,5 C 13,9 C 13,9 C 95 % 1010,7 hPa 0,0 l/m 0 min 0 min 0 W/m 0,0 km/h (0 Bft) 100,00 %
11.06.2019 00:26 15,5 C 13,9 C 13,9 C 95 % 1010,8 hPa 0,0 l/m 0 min 0 min 0 W/m 0,0 km/h (0 Bft) 97,87 %
11.06.2019 00:28 15,5 C 13,9 C 13,9 C 95 % 1010,8 hPa 0,0 l/m 0 min 0 min 0 W/m 0,0 km/h (0 Bft) 100,00 %
11.06.2019 00:30 15,5 C 14,4 C 13,9 C 95 % 1010,9 hPa 0,0 l/m 0 min 0 min 0 W/m 0,0 km/h (0 Bft) 100,00 %
11.06.2019 00:32 15,5 C 14,4 C 13,9 C 95 % 1010,9 hPa 0,0 l/m 0 min 0 min 0 W/m 0,0 km/h (0 Bft) 100,00 %
11.06.2019 00:34 15,5 C 14,4 C 13,9 C 95 % 1010,9 hPa 0,0 l/m 0 min 0 min 0 W/m 3,2 km/h (1 Bft) 100,00 %
11.06.2019 00:36 15,4 C 14,4 C 13,9 C 95 % 1010,9 hPa 0,0 l/m 0 min 0 min 0 W/m 3,2 km/h (1 Bft) 100,00 %
11.06.2019 00:38 15,4 C 14,4 C 13,9 C 95 % 1010,9 hPa 0,0 l/m 0 min 0 min 0 W/m 0,0 km/h (0 Bft) 97,87 %
11.06.2019 00:40 15,4 C 14,4 C 13,9 C 96 % 1010,9 hPa 0,0 l/m 0 min 0 min 0 W/m 0,0 km/h (0 Bft) 100,00 %
11.06.2019 00:42 15,4 C 14,4 C 13,9 C 96 % 1010,8 hPa 0,0 l/m 0 min 0 min 0 W/m 0,0 km/h (0 Bft) 100,00 %
11.06.2019 00:44 15,5 C 14,4 C 13,9 C 96 % 1010,8 hPa 0,0 l/m 0 min 0 min 0 W/m 6,4 km/h (2 Bft) 97,83 %
11.06.2019 00:46 15,5 C 14,4 C 13,9 C 96 % 1010,8 hPa 0,0 l/m 0 min 0 min 0 W/m 0,0 km/h (0 Bft) 100,00 %
11.06.2019 00:48 15,5 C 14,4 C 13,9 C 96 % 1010,8 hPa 0,0 l/m 0 min 0 min 0 W/m 0,0 km/h (0 Bft) 97,87 %
11.06.2019 00:50 15,5 C 14,4 C 13,9 C 96 % 1010,9 hPa 0,0 l/m 0 min 0 min 0 W/m 0,0 km/h (0 Bft) 97,87 %
11.06.2019 00:52 15,4 C 14,4 C 13,9 C 96 % 1011,0 hPa 0,0 l/m 0 min 0 min 0 W/m 3,2 km/h (1 Bft) 100,00 %
11.06.2019 00:54 15,4 C 14,4 C 13,9 C 96 % 1011,1 hPa 0,0 l/m 0 min 0 min 0 W/m 0,0 km/h (0 Bft) 100,00 %
11.06.2019 00:56 15,4 C 14,4 C 13,9 C 96 % 1011,0 hPa 0,0 l/m 0 min 0 min 0 W/m 0,0 km/h (0 Bft) 97,83 %
11.06.2019 00:58 15,4 C 14,4 C 13,9 C 96 % 1011,1 hPa 0,0 l/m 0 min 0 min 0 W/m 0,0 km/h (0 Bft) 100,00 %
11.06.2019 01:00 15,4 C 14,4 C 13,9 C 96 % 1011,1 hPa 0,0 l/m 0 min 0 min 0 W/m 3,2 km/h (1 Bft) 100,00 %
11.06.2019 01:02 15,4 C 14,4 C 13,9 C 96 % 1011,0 hPa 0,0 l/m 0 min 0 min 0 W/m 0,0 km/h (0 Bft) 97,87 %
11.06.2019 01:04 15,4 C 14,4 C 13,9 C 96 % 1011,0 hPa 0,0 l/m 0 min 0 min 0 W/m 0,0 km/h (0 Bft) 100,00 %
11.06.2019 01:06 15,4 C 14,4 C 13,9 C 96 % 1011,0 hPa 0,0 l/m 0 min 0 min 0 W/m 0,0 km/h (0 Bft) 100,00 %
11.06.2019 01:08 15,4 C 14,4 C 13,9 C 96 % 1011,0 hPa 0,0 l/m 0 min 0 min 0 W/m 0,0 km/h (0 Bft) 100,00 %
11.06.2019 01:10 15,4 C 14,4 C 13,9 C 96 % 1011,1 hPa 0,0 l/m 0 min 0 min 0 W/m 0,0 km/h (0 Bft) 100,00 %
11.06.2019 01:12 15,4 C 14,4 C 13,9 C 96 % 1011,1 hPa 0,0 l/m 0 min 0 min 0 W/m 0,0 km/h (0 Bft) 100,00 %
11.06.2019 01:14 15,4 C 14,4 C 13,9 C 96 % 1011,1 hPa 0,0 l/m 0 min 0 min 0 W/m 0,0 km/h (0 Bft) 100,00 %
11.06.2019 01:16 15,4 C 14,4 C 13,9 C 96 % 1011,1 hPa 0,0 l/m 0 min 0 min 0 W/m 0,0 km/h (0 Bft) 97,87 %
11.06.2019 01:18 15,4 C 14,4 C 13,9 C 96 % 1011,1 hPa 0,0 l/m 0 min 0 min 0 W/m 0,0 km/h (0 Bft) 100,00 %
11.06.2019 01:20 15,4 C 14,4 C 14,4 C 96 % 1011,1 hPa 0,0 l/m 0 min 0 min 0 W/m 0,0 km/h (0 Bft) 97,83 %
11.06.2019 01:22 15,4 C 14,4 C 14,4 C 96 % 1011,1 hPa 0,0 l/m 0 min 0 min 0 W/m 3,2 km/h (1 Bft) 100,00 %
11.06.2019 01:24 15,4 C 14,4 C 14,4 C 96 % 1011,1 hPa 0,0 l/m 0 min 0 min 0 W/m 3,2 km/h (1 Bft) 100,00 %
11.06.2019 01:26 15,4 C 14,4 C 13,9 C 96 % 1011,2 hPa 0,0 l/m 0 min 0 min 0 W/m 3,2 km/h (1 Bft) 100,00 %
11.06.2019 01:28 15,4 C 14,4 C 13,9 C 96 % 1011,2 hPa 0,0 l/m 0 min 0 min 0 W/m 0,0 km/h (0 Bft) 100,00 %
11.06.2019 01:30 15,4 C 14,4 C 13,9 C 96 % 1011,2 hPa 0,0 l/m 0 min 0 min 0 W/m 9,7 km/h (2 Bft) 97,83 %
11.06.2019 01:32 15,4 C 14,4 C 13,9 C 96 % 1011,2 hPa 0,0 l/m 0 min 0 min 0 W/m 12,9 km/h (3 Bft) 100,00 %
11.06.2019 01:34 15,4 C 14,4 C 13,9 C 96 % 1011,1 hPa 0,0 l/m 0 min 0 min 0 W/m 6,4 km/h (2 Bft) 100,00 %
11.06.2019 01:36 15,4 C 14,4 C 13,9 C 96 % 1011,2 hPa 0,0 l/m 0 min 0 min 0 W/m 9,7 km/h (2 Bft) 100,00 %
11.06.2019 01:38 15,4 C 14,4 C 13,9 C 96 % 1011,2 hPa 0,0 l/m 0 min 0 min 0 W/m 0,0 km/h (0 Bft) 100,00 %
11.06.2019 01:40 15,4 C 14,4 C 13,9 C 96 % 1011,2 hPa 0,0 l/m 0 min 0 min 0 W/m 3,2 km/h (1 Bft) 100,00 %
11.06.2019 01:42 15,4 C 14,4 C 13,9 C 96 % 1011,2 hPa 0,0 l/m 0 min 0 min 0 W/m 3,2 km/h (1 Bft) 97,83 %
11.06.2019 01:44 15,4 C 13,9 C 13,9 C 96 % 1011,1 hPa 0,0 l/m 0 min 0 min 0 W/m 0,0 km/h (0 Bft) 100,00 %
11.06.2019 01:46 15,4 C 13,9 C 13,9 C 96 % 1011,1 hPa 0,0 l/m 0 min 0 min 0 W/m 0,0 km/h (0 Bft) 97,87 %
11.06.2019 01:48 15,3 C 13,9 C 13,9 C 96 % 1011,1 hPa 0,0 l/m 0 min 0 min 0 W/m 3,2 km/h (1 Bft) 95,74 %
11.06.2019 01:50 15,3 C 13,9 C 13,9 C 96 % 1011,1 hPa 0,0 l/m 0 min 0 min 0 W/m 3,2 km/h (1 Bft) 95,74 %
11.06.2019 01:52 15,3 C 13,9 C 13,9 C 96 % 1011,1 hPa 0,0 l/m 0 min 0 min 0 W/m 3,2 km/h (1 Bft) 97,87 %
11.06.2019 01:54 15,3 C 13,9 C 13,9 C 96 % 1011,1 hPa 0,0 l/m 0 min 0 min 0 W/m 6,4 km/h (2 Bft) 93,48 %
11.06.2019 01:56 15,3 C 13,9 C 13,9 C 96 % 1011,0 hPa 0,0 l/m 0 min 0 min 0 W/m 0,0 km/h (0 Bft) 95,74 %
11.06.2019 01:58 15,3 C 13,9 C 13,9 C 96 % 1011,2 hPa 0,0 l/m 0 min 0 min 0 W/m 3,2 km/h (1 Bft) 95,74 %
11.06.2019 02:00 15,3 C 13,9 C 13,9 C 96 % 1011,1 hPa 0,0 l/m 0 min 0 min 0 W/m 6,4 km/h (2 Bft) 93,62 %
11.06.2019 02:02 15,2 C 13,9 C 13,9 C 96 % 1011,1 hPa 0,0 l/m 0 min 0 min 0 W/m 6,4 km/h (2 Bft) 93,62 %
11.06.2019 02:04 15,2 C 13,9 C 13,9 C 96 % 1011,1 hPa 0,0 l/m 0 min 0 min 0 W/m 0,0 km/h (0 Bft) 91,49 %
11.06.2019 02:06 15,2 C 13,9 C 13,9 C 96 % 1011,1 hPa 0,0 l/m 0 min 0 min 0 W/m 3,2 km/h (1 Bft) 95,65 %
11.06.2019 02:08 15,2 C 13,9 C 13,9 C 96 % 1011,1 hPa 0,0 l/m 0 min 0 min 0 W/m 3,2 km/h (1 Bft) 95,74 %
11.06.2019 02:10 15,2 C 13,9 C 13,9 C 96 % 1011,1 hPa 0,0 l/m 0 min 0 min 0 W/m 0,0 km/h (0 Bft) 97,87 %
11.06.2019 02:12 15,2 C 13,9 C 13,9 C 96 % 1011,1 hPa 0,0 l/m 0 min 0 min 0 W/m 0,0 km/h (0 Bft) 95,74 %
11.06.2019 02:14 15,2 C 13,9 C 13,9 C 96 % 1011,1 hPa 0,0 l/m 0 min 0 min 0 W/m 0,0 km/h (0 Bft) 93,62 %
11.06.2019 02:16 15,2 C 13,9 C 13,9 C 96 % 1011,1 hPa 0,0 l/m 0 min 0 min 0 W/m 0,0 km/h (0 Bft) 95,74 %
11.06.2019 02:18 15,1 C 13,9 C 13,9 C 96 % 1011,1 hPa 0,0 l/m 0 min 0 min 0 W/m 0,0 km/h (0 Bft) 93,48 %
11.06.2019 02:20 15,1 C 13,9 C 13,9 C 96 % 1011,2 hPa 0,0 l/m 0 min 0 min 0 W/m 6,4 km/h (2 Bft) 93,62 %
11.06.2019 02:22 15,1 C 13,9 C 13,9 C 96 % 1011,2 hPa 0,0 l/m 0 min 0 min 0 W/m 3,2 km/h (1 Bft) 91,49 %
11.06.2019 02:24 15,1 C 13,9 C 13,9 C 96 % 1011,2 hPa 0,0 l/m 0 min 0 min 0 W/m 0,0 km/h (0 Bft) 91,49 %
11.06.2019 02:26 15,1 C 13,9 C 13,9 C 96 % 1011,2 hPa 0,0 l/m 0 min 0 min 0 W/m 3,2 km/h (1 Bft) 91,49 %
11.06.2019 02:28 15,1 C 13,9 C 13,9 C 96 % 1011,2 hPa 0,0 l/m 0 min 0 min 0 W/m 3,2 km/h (1 Bft) 93,62 %
11.06.2019 02:30 15,1 C 13,9 C 13,9 C 96 % 1011,1 hPa 0,0 l/m 0 min 0 min 0 W/m 6,4 km/h (2 Bft) 93,48 %
11.06.2019 02:32 15,1 C 13,9 C 13,9 C 96 % 1011,1 hPa 0,0 l/m 0 min 0 min 0 W/m 0,0 km/h (0 Bft) 95,74 %
11.06.2019 02:34 15,0 C 13,9 C 13,9 C 96 % 1011,1 hPa 0,0 l/m 0 min 0 min 0 W/m 0,0 km/h (0 Bft) 95,74 %
11.06.2019 02:36 15,0 C 13,9 C 13,9 C 96 % 1011,0 hPa 0,0 l/m 0 min 0 min 0 W/m 6,4 km/h (2 Bft) 93,62 %
11.06.2019 02:38 15,0 C 13,9 C 13,9 C 96 % 1011,0 hPa 0,0 l/m 0 min 0 min 0 W/m 3,2 km/h (1 Bft) 95,74 %
11.06.2019 02:40 15,0 C 13,9 C 13,9 C 96 % 1011,0 hPa 0,0 l/m 0 min 0 min 0 W/m 0,0 km/h (0 Bft) 95,74 %
11.06.2019 02:42 15,0 C 13,9 C 13,9 C 96 % 1011,1 hPa 0,0 l/m 0 min 0 min 0 W/m 6,4 km/h (2 Bft) 95,65 %
11.06.2019 02:44 15,0 C 13,9 C 13,9 C 96 % 1011,0 hPa 0,0 l/m 0 min 0 min 0 W/m 6,4 km/h (2 Bft) 93,62 %
11.06.2019 02:46 14,9 C 13,9 C 13,9 C 96 % 1011,1 hPa 0,0 l/m 0 min 0 min 0 W/m 3,2 km/h (1 Bft) 95,74 %
11.06.2019 02:48 14,9 C 13,9 C 13,9 C 96 % 1011,1 hPa 0,0 l/m 0 min 0 min 0 W/m 0,0 km/h (0 Bft) 95,74 %
11.06.2019 02:50 14,9 C 13,9 C 13,9 C 96 % 1011,1 hPa 0,0 l/m 0 min 0 min 0 W/m 0,0 km/h (0 Bft) 95,74 %
11.06.2019 02:52 14,9 C 13,9 C 13,9 C 96 % 1011,1 hPa 0,0 l/m 0 min 0 min 0 W/m 3,2 km/h (1 Bft) 95,65 %
11.06.2019 02:54 14,9 C 13,9 C 13,9 C 96 % 1011,1 hPa 0,0 l/m 0 min 0 min 0 W/m 3,2 km/h (1 Bft) 97,87 %
11.06.2019 02:56 14,9 C 13,9 C 13,9 C 96 % 1011,2 hPa 0,0 l/m 0 min 0 min 0 W/m 9,7 km/h (2 Bft) 97,87 %
11.06.2019 02:58 14,9 C 13,9 C 13,9 C 96 % 1011,2 hPa 0,0 l/m 0 min 0 min 0 W/m 9,7 km/h (2 Bft) 97,87 %
11.06.2019 03:00 14,9 C 13,9 C 13,3 C 96 % 1011,2 hPa 0,0 l/m 0 min 0 min 0 W/m 3,2 km/h (1 Bft) 93,62 %
11.06.2019 03:02 14,9 C 13,9 C 13,3 C 96 % 1011,2 hPa 0,0 l/m 0 min 0 min 0 W/m 9,7 km/h (2 Bft) 95,74 %
11.06.2019 03:04 14,9 C 13,9 C 13,3 C 96 % 1011,2 hPa 0,0 l/m 0 min 0 min 0 W/m 3,2 km/h (1 Bft) 97,83 %
11.06.2019 03:06 14,9 C 13,9 C 13,3 C 96 % 1011,2 hPa 0,0 l/m 0 min 0 min 0 W/m 9,7 km/h (2 Bft) 95,74 %
11.06.2019 03:08 14,9 C 13,9 C 13,3 C 96 % 1011,2 hPa 0,0 l/m 0 min 0 min 0 W/m 3,2 km/h (1 Bft) 97,87 %
11.06.2019 03:10 14,9 C 13,9 C 13,3 C 96 % 1011,2 hPa 0,0 l/m 0 min 0 min 0 W/m 3,2 km/h (1 Bft) 97,87 %
11.06.2019 03:12 14,8 C 13,9 C 13,3 C 96 % 1011,3 hPa 0,0 l/m 0 min 0 min 0 W/m 3,2 km/h (1 Bft) 100,00 %
11.06.2019 03:14 14,8 C 13,9 C 13,3 C 96 % 1011,3 hPa 0,0 l/m 0 min 0 min 0 W/m 3,2 km/h (1 Bft) 100,00 %
11.06.2019 03:16 14,9 C 13,9 C 13,9 C 96 % 1011,3 hPa 0,0 l/m 0 min 0 min 0 W/m 3,2 km/h (1 Bft) 100,00 %
11.06.2019 03:18 14,9 C 13,9 C 13,9 C 96 % 1011,3 hPa 0,0 l/m 0 min 0 min 0 W/m 3,2 km/h (1 Bft) 100,00 %
11.06.2019 03:20 14,9 C 13,9 C 13,9 C 96 % 1011,2 hPa 0,0 l/m 0 min 0 min 0 W/m 3,2 km/h (1 Bft) 100,00 %
11.06.2019 03:22 14,9 C 13,9 C 13,9 C 96 % 1011,2 hPa 0,0 l/m 0 min 0 min 0 W/m 0,0 km/h (0 Bft) 97,87 %
11.06.2019 03:24 14,9 C 13,9 C 13,9 C 96 % 1011,2 hPa 0,0 l/m 0 min 0 min 0 W/m 3,2 km/h (1 Bft) 97,87 %
11.06.2019 03:26 14,9 C 13,9 C 13,9 C 96 % 1011,2 hPa 0,0 l/m 0 min 0 min 0 W/m 12,9 km/h (3 Bft) 97,87 %
11.06.2019 03:28 14,9 C 13,9 C 13,9 C 96 % 1011,1 hPa 0,0 l/m 0 min 0 min 0 W/m 9,7 km/h (2 Bft) 100,00 %
11.06.2019 03:30 14,9 C 13,9 C 13,9 C 96 % 1011,2 hPa 0,0 l/m 0 min 0 min 0 W/m 3,2 km/h (1 Bft) 100,00 %
11.06.2019 03:32 14,9 C 13,9 C 13,9 C 96 % 1011,2 hPa 0,0 l/m 0 min 0 min 0 W/m 6,4 km/h (2 Bft) 100,00 %
11.06.2019 03:34 14,9 C 13,9 C 13,9 C 96 % 1011,2 hPa 0,0 l/m 0 min 0 min 0 W/m 3,2 km/h (1 Bft) 100,00 %
11.06.2019 03:36 14,9 C 13,9 C 13,9 C 96 % 1011,2 hPa 0,0 l/m 0 min 0 min 0 W/m 3,2 km/h (1 Bft) 100,00 %
11.06.2019 03:38 14,9 C 13,9 C 13,9 C 96 % 1011,2 hPa 0,0 l/m 0 min 0 min 0 W/m 9,7 km/h (2 Bft) 100,00 %
11.06.2019 03:40 14,8 C 13,9 C 13,9 C 96 % 1011,2 hPa 0,0 l/m 0 min 0 min 0 W/m 3,2 km/h (1 Bft) 100,00 %
11.06.2019 03:42 14,8 C 13,9 C 13,9 C 96 % 1011,2 hPa 0,0 l/m 0 min 0 min 0 W/m 6,4 km/h (2 Bft) 100,00 %
11.06.2019 03:44 14,8 C 13,9 C 13,9 C 96 % 1011,2 hPa 0,0 l/m 0 min 0 min 0 W/m 6,4 km/h (2 Bft) 97,83 %
11.06.2019 03:46 14,8 C 13,9 C 13,9 C 96 % 1011,2 hPa 0,0 l/m 0 min 0 min 0 W/m 3,2 km/h (1 Bft) 100,00 %
11.06.2019 03:48 14,8 C 13,9 C 13,9 C 96 % 1011,2 hPa 0,0 l/m 0 min 0 min 0 W/m 6,4 km/h (2 Bft) 100,00 %
11.06.2019 03:50 14,8 C 13,9 C 13,9 C 96 % 1011,2 hPa 0,0 l/m 0 min 0 min 0 W/m 12,9 km/h (3 Bft) 100,00 %
11.06.2019 03:52 14,8 C 13,9 C 13,9 C 96 % 1011,2 hPa 0,0 l/m 0 min 0 min 0 W/m 12,9 km/h (3 Bft) 100,00 %
11.06.2019 03:54 14,8 C 13,9 C 13,3 C 96 % 1011,2 hPa 0,0 l/m 0 min 2 min 0 W/m 6,4 km/h (2 Bft) 100,00 %
11.06.2019 03:56 14,7 C 13,9 C 13,3 C 96 % 1011,2 hPa 0,0 l/m 0 min 2 min 0 W/m 16,1 km/h (3 Bft) 100,00 %
11.06.2019 03:58 14,7 C 13,3 C 13,3 C 96 % 1011,1 hPa 0,0 l/m 0 min 2 min 0 W/m 6,4 km/h (2 Bft) 100,00 %
11.06.2019 04:00 14,7 C 13,3 C 13,3 C 96 % 1011,1 hPa 0,0 l/m 0 min 2 min 0 W/m 3,2 km/h (1 Bft) 100,00 %
11.06.2019 04:02 14,7 C 13,3 C 13,3 C 96 % 1011,1 hPa 0,0 l/m 0 min 2 min 0 W/m 3,2 km/h (1 Bft) 100,00 %
11.06.2019 04:04 14,7 C 13,3 C 13,3 C 96 % 1011,1 hPa 0,0 l/m 0 min 2 min 0 W/m 6,4 km/h (2 Bft) 97,87 %
11.06.2019 04:06 14,7 C 13,3 C 13,3 C 96 % 1011,2 hPa 0,0 l/m 0 min 2 min 0 W/m 3,2 km/h (1 Bft) 100,00 %
11.06.2019 04:08 14,7 C 13,3 C 13,3 C 96 % 1011,2 hPa 0,0 l/m 0 min 2 min 0 W/m 22,5 km/h (4 Bft) 100,00 %
11.06.2019 04:10 14,7 C 13,3 C 13,3 C 96 % 1011,1 hPa 0,0 l/m 0 min 2 min 0 W/m 16,1 km/h (3 Bft) 100,00 %
11.06.2019 04:12 14,7 C 13,3 C 13,3 C 96 % 1011,1 hPa 0,0 l/m 0 min 2 min 0 W/m 3,2 km/h (1 Bft) 100,00 %
11.06.2019 04:14 14,6 C 13,3 C 12,8 C 96 % 1011,1 hPa 0,0 l/m 0 min 2 min 0 W/m 9,7 km/h (2 Bft) 100,00 %
11.06.2019 04:16 14,6 C 13,3 C 12,8 C 96 % 1011,1 hPa 0,0 l/m 0 min 2 min 0 W/m 0,0 km/h (0 Bft) 97,87 %
11.06.2019 04:18 14,6 C 13,3 C 12,8 C 96 % 1011,1 hPa 0,0 l/m 0 min 2 min 0 W/m 9,7 km/h (2 Bft) 100,00 %
11.06.2019 04:20 14,6 C 13,3 C 12,8 C 96 % 1011,1 hPa 0,0 l/m 0 min 2 min 0 W/m 16,1 km/h (3 Bft) 100,00 %
11.06.2019 04:22 14,5 C 13,3 C 12,8 C 96 % 1011,1 hPa 0,0 l/m 0 min 0 min 0 W/m 19,3 km/h (3 Bft) 97,87 %
11.06.2019 04:24 14,4 C 13,3 C 12,8 C 96 % 1011,2 hPa 0,0 l/m 0 min 2 min 0 W/m 12,9 km/h (3 Bft) 100,00 %
11.06.2019 04:26 14,4 C 12,8 C 12,8 C 96 % 1011,2 hPa 0,0 l/m 0 min 2 min 0 W/m 19,3 km/h (3 Bft) 100,00 %
11.06.2019 04:28 14,4 C 12,8 C 12,8 C 96 % 1011,1 hPa 0,0 l/m 0 min 2 min 0 W/m 9,7 km/h (2 Bft) 97,87 %
11.06.2019 04:30 14,4 C 12,8 C 12,8 C 96 % 1011,1 hPa 0,0 l/m 0 min 2 min 0 W/m 9,7 km/h (2 Bft) 97,83 %
11.06.2019 04:32 14,3 C 12,8 C 12,8 C 96 % 1011,1 hPa 0,2 l/m 0 min 2 min 0 W/m 9,7 km/h (2 Bft) 97,87 %
11.06.2019 04:34 14,3 C 12,8 C 12,8 C 96 % 1011,1 hPa 0,0 l/m 0 min 2 min 0 W/m 19,3 km/h (3 Bft) 97,87 %
11.06.2019 04:36 14,2 C 12,8 C 12,8 C 96 % 1011,1 hPa 0,0 l/m 0 min 2 min 0 W/m 9,7 km/h (2 Bft) 97,87 %
11.06.2019 04:38 14,2 C 12,8 C 12,8 C 96 % 1011,0 hPa 0,0 l/m 0 min 2 min 0 W/m 12,9 km/h (3 Bft) 97,87 %
11.06.2019 04:40 14,2 C 12,8 C 12,8 C 96 % 1011,1 hPa 0,0 l/m 0 min 2 min 0 W/m 9,7 km/h (2 Bft) 93,62 %
11.06.2019 04:42 14,2 C 12,8 C 12,8 C 96 % 1011,0 hPa 0,0 l/m 0 min 2 min 0 W/m 6,4 km/h (2 Bft) 97,83 %
11.06.2019 04:44 14,2 C 12,8 C 12,8 C 96 % 1011,0 hPa 0,0 l/m 0 min 2 min 0 W/m 6,4 km/h (2 Bft) 97,87 %
11.06.2019 04:46 14,2 C 12,8 C 12,8 C 96 % 1011,0 hPa 0,0 l/m 0 min 2 min 0 W/m 12,9 km/h (3 Bft) 97,87 %
11.06.2019 04:48 14,2 C 12,8 C 12,8 C 96 % 1011,0 hPa 0,0 l/m 0 min 2 min 0 W/m 6,4 km/h (2 Bft) 97,87 %
11.06.2019 04:50 14,2 C 12,8 C 12,8 C 96 % 1010,9 hPa 0,0 l/m 0 min 2 min 0 W/m 6,4 km/h (2 Bft) 97,87 %
11.06.2019 04:52 14,2 C 12,8 C 12,8 C 96 % 1011,0 hPa 0,0 l/m 0 min 2 min 0 W/m 3,2 km/h (1 Bft) 97,87 %
11.06.2019 04:54 14,2 C 12,8 C 12,2 C 96 % 1011,0 hPa 0,0 l/m 0 min 2 min 0 W/m 6,4 km/h (2 Bft) 97,83 %
11.06.2019 04:56 14,2 C 12,8 C 12,8 C 96 % 1011,0 hPa 0,0 l/m 0 min 2 min 0 W/m 3,2 km/h (1 Bft) 95,74 %
11.06.2019 04:58 14,1 C 12,8 C 12,2 C 96 % 1011,0 hPa 0,0 l/m 0 min 2 min 0 W/m 9,7 km/h (2 Bft) 93,62 %
11.06.2019 05:00 14,1 C 12,8 C 12,8 C 96 % 1011,1 hPa 0,0 l/m 0 min 2 min 0 W/m 3,2 km/h (1 Bft) 95,74 %
11.06.2019 05:02 14,1 C 12,8 C 12,2 C 96 % 1011,1 hPa 0,0 l/m 0 min 2 min 0 W/m 12,9 km/h (3 Bft) 93,62 %
11.06.2019 05:04 14,1 C 12,8 C 12,2 C 96 % 1011,2 hPa 0,2 l/m 0 min 2 min 0 W/m 3,2 km/h (1 Bft) 95,74 %
11.06.2019 05:05 14,1 C 12,2 C 12,2 C 96 % 1011,2 hPa 0,2 l/m 0 min 1 min 0 W/m 12,9 km/h (3 Bft) 97,37 %
11.06.2019 05:10 14,0 C 12,2 C 12,2 C 96 % 1011,2 hPa 0,0 l/m 0 min 5 min 0 W/m 6,4 km/h (2 Bft) 99,12 %
11.06.2019 05:12 14,0 C 12,2 C 12,2 C 96 % 1011,2 hPa 0,0 l/m 0 min 2 min 0 W/m 6,4 km/h (2 Bft) 100,00 %
11.06.2019 05:14 13,9 C 12,2 C 12,2 C 96 % 1011,3 hPa 0,0 l/m 0 min 2 min 0 W/m 9,7 km/h (2 Bft) 95,65 %
11.06.2019 05:16 13,9 C 12,2 C 12,2 C 96 % 1011,2 hPa 0,0 l/m 0 min 2 min 0 W/m 6,4 km/h (2 Bft) 100,00 %
11.06.2019 05:18 13,9 C 12,2 C 12,2 C 96 % 1011,2 hPa 0,0 l/m 0 min 2 min 0 W/m 0,0 km/h (0 Bft) 97,56 %
11.06.2019 05:20 13,9 C 12,2 C 12,2 C 96 % 1011,1 hPa 0,0 l/m 0 min 2 min 0 W/m 0,0 km/h (0 Bft) 97,96 %
11.06.2019 05:22 13,9 C 12,2 C 12,2 C 96 % 1011,1 hPa 0,0 l/m 0 min 2 min 0 W/m 6,4 km/h (2 Bft) 95,92 %
11.06.2019 05:24 13,9 C 12,2 C 12,2 C 96 % 1011,1 hPa 0,0 l/m 0 min 2 min 0 W/m 6,4 km/h (2 Bft) 97,92 %
11.06.2019 05:26 13,8 C 12,2 C 12,2 C 96 % 1011,2 hPa 0,0 l/m 0 min 0 min 0 W/m 3,2 km/h (1 Bft) 97,87 %
11.06.2019 05:28 13,8 C 12,2 C 12,2 C 96 % 1011,2 hPa 0,0 l/m 0 min 0 min 0 W/m 0,0 km/h (0 Bft) 95,74 %
11.06.2019 05:30 13,8 C 12,2 C 12,2 C 96 % 1011,2 hPa 0,0 l/m 0 min 2 min 0 W/m 9,7 km/h (2 Bft) 97,56 %
11.06.2019 05:32 13,8 C 12,2 C 12,2 C 96 % 1011,2 hPa 0,0 l/m 0 min 2 min 0 W/m 3,2 km/h (1 Bft) 94,00 %
11.06.2019 05:34 13,8 C 12,2 C 12,2 C 96 % 1011,2 hPa 0,0 l/m 0 min 0 min 0 W/m 6,4 km/h (2 Bft) 95,92 %
11.06.2019 05:36 13,7 C 12,2 C 12,2 C 96 % 1011,3 hPa 0,0 l/m 0 min 0 min 0 W/m 12,9 km/h (3 Bft) 93,62 %
11.06.2019 05:38 13,7 C 12,2 C 12,2 C 96 % 1011,3 hPa 0,0 l/m 0 min 0 min 0 W/m 6,4 km/h (2 Bft) 95,74 %
11.06.2019 05:40 13,7 C 12,2 C 12,2 C 96 % 1011,3 hPa 0,0 l/m 0 min 0 min 0 W/m 3,2 km/h (1 Bft) 95,74 %
11.06.2019 05:42 13,6 C 12,2 C 12,2 C 96 % 1011,2 hPa 0,0 l/m 0 min 0 min 0 W/m 9,7 km/h (2 Bft) 92,86 %
11.06.2019 05:44 13,6 C 12,2 C 12,2 C 96 % 1011,2 hPa 0,0 l/m 0 min 0 min 0 W/m 3,2 km/h (1 Bft) 95,92 %
11.06.2019 05:46 13,6 C 12,2 C 12,2 C 96 % 1011,3 hPa 0,0 l/m 0 min 0 min 5 W/m 16,1 km/h (3 Bft) 95,92 %
11.06.2019 05:48 13,6 C 12,2 C 12,2 C 96 % 1011,3 hPa 0,0 l/m 0 min 0 min 5 W/m 3,2 km/h (1 Bft) 93,62 %
11.06.2019 05:50 13,5 C 12,2 C 11,7 C 96 % 1011,3 hPa 0,0 l/m 0 min 0 min 7 W/m 6,4 km/h (2 Bft) 93,62 %
11.06.2019 05:52 13,5 C 12,2 C 12,2 C 96 % 1011,4 hPa 0,0 l/m 0 min 0 min 7 W/m 3,2 km/h (1 Bft) 95,74 %
11.06.2019 05:54 13,4 C 12,2 C 11,7 C 96 % 1011,4 hPa 0,0 l/m 0 min 0 min 8 W/m 6,4 km/h (2 Bft) 95,24 %
11.06.2019 05:56 13,4 C 12,2 C 11,7 C 96 % 1011,4 hPa 0,0 l/m 0 min 0 min 9 W/m 16,1 km/h (3 Bft) 93,88 %
11.06.2019 05:58 13,4 C 12,2 C 11,7 C 96 % 1011,4 hPa 0,0 l/m 0 min 0 min 9 W/m 3,2 km/h (1 Bft) 95,92 %
11.06.2019 06:00 13,4 C 12,2 C 11,7 C 96 % 1011,5 hPa 0,0 l/m 0 min 0 min 10 W/m 12,9 km/h (3 Bft) 95,74 %
11.06.2019 06:02 13,3 C 12,2 C 11,7 C 96 % 1011,5 hPa 0,0 l/m 0 min 0 min 11 W/m 12,9 km/h (3 Bft) 93,62 %
11.06.2019 06:04 13,3 C 12,2 C 11,7 C 96 % 1011,5 hPa 0,0 l/m 0 min 0 min 12 W/m 12,9 km/h (3 Bft) 95,74 %
11.06.2019 06:07 13,2 C 12,2 C 11,7 C 96 % 1011,5 hPa 0,0 l/m 0 min 0 min 12 W/m 9,7 km/h (2 Bft) 96,15 %
11.06.2019 06:08 13,2 C 12,2 C 11,7 C 96 % 1011,5 hPa 0,0 l/m 0 min 0 min 12 W/m 3,2 km/h (1 Bft) 91,67 %
11.06.2019 06:10 13,2 C 12,2 C 11,7 C 96 % 1011,5 hPa 0,0 l/m 0 min 0 min 12 W/m 6,4 km/h (2 Bft) 97,96 %
11.06.2019 06:12 13,2 C 12,2 C 11,7 C 96 % 1011,5 hPa 0,0 l/m 0 min 0 min 13 W/m 9,7 km/h (2 Bft) 97,92 %
11.06.2019 06:14 13,2 C 11,7 C 11,7 C 96 % 1011,6 hPa 0,0 l/m 0 min 0 min 16 W/m 6,4 km/h (2 Bft) 97,87 %
11.06.2019 06:16 13,1 C 11,7 C 11,7 C 96 % 1011,6 hPa 0,0 l/m 0 min 0 min 19 W/m 6,4 km/h (2 Bft) 97,87 %
11.06.2019 06:18 13,1 C 11,7 C 11,7 C 96 % 1011,7 hPa 0,0 l/m 0 min 0 min 20 W/m 6,4 km/h (2 Bft) 97,56 %
11.06.2019 06:20 13,1 C 11,7 C 11,7 C 96 % 1011,8 hPa 0,0 l/m 0 min 0 min 23 W/m 19,3 km/h (3 Bft) 95,92 %
11.06.2019 06:22 13,1 C 11,7 C 11,7 C 96 % 1011,8 hPa 0,0 l/m 0 min 0 min 25 W/m 3,2 km/h (1 Bft) 95,92 %
11.06.2019 06:24 13,1 C 11,7 C 11,7 C 96 % 1011,9 hPa 0,0 l/m 0 min 0 min 27 W/m 6,4 km/h (2 Bft) 97,83 %
11.06.2019 06:26 13,0 C 11,7 C 11,7 C 96 % 1011,9 hPa 0,0 l/m 0 min 0 min 28 W/m 6,4 km/h (2 Bft) 97,96 %
11.06.2019 06:28 13,0 C 11,7 C 11,7 C 96 % 1012,0 hPa 0,0 l/m 0 min 0 min 27 W/m 6,4 km/h (2 Bft) 97,87 %
11.06.2019 06:30 13,0 C 11,7 C 11,7 C 96 % 1012,0 hPa 0,0 l/m 0 min 0 min 25 W/m 9,7 km/h (2 Bft) 100,00 %
11.06.2019 06:32 12,9 C 11,7 C 11,7 C 96 % 1012,1 hPa 0,0 l/m 0 min 0 min 22 W/m 6,4 km/h (2 Bft) 97,62 %
11.06.2019 06:34 12,9 C 11,7 C 11,7 C 96 % 1012,1 hPa 0,0 l/m 0 min 0 min 19 W/m 6,4 km/h (2 Bft) 95,92 %
11.06.2019 06:36 12,9 C 11,7 C 11,7 C 96 % 1012,1 hPa 0,0 l/m 0 min 0 min 18 W/m 12,9 km/h (3 Bft) 98,36 %
11.06.2019 06:38 12,9 C 11,7 C 11,7 C 96 % 1012,1 hPa 0,0 l/m 0 min 0 min 18 W/m 9,7 km/h (2 Bft) 100,00 %
11.06.2019 06:40 12,9 C 11,7 C 11,7 C 96 % 1012,1 hPa 0,0 l/m 0 min 0 min 19 W/m 9,7 km/h (2 Bft) 100,00 %
11.06.2019 06:42 12,8 C 11,7 C 11,7 C 96 % 1012,2 hPa 0,0 l/m 0 min 0 min 19 W/m 6,4 km/h (2 Bft) 100,00 %
11.06.2019 06:44 12,8 C 11,7 C 11,7 C 96 % 1012,2 hPa 0,0 l/m 0 min 0 min 19 W/m 6,4 km/h (2 Bft) 97,96 %
11.06.2019 06:46 12,8 C 11,7 C 11,7 C 96 % 1012,3 hPa 0,0 l/m 0 min 0 min 19 W/m 9,7 km/h (2 Bft) 100,00 %
11.06.2019 06:48 12,8 C 11,7 C 11,7 C 96 % 1012,2 hPa 0,0 l/m 0 min 0 min 21 W/m 6,4 km/h (2 Bft) 100,00 %
11.06.2019 06:50 12,8 C 11,7 C 11,7 C 96 % 1012,2 hPa 0,0 l/m 0 min 0 min 24 W/m 19,3 km/h (3 Bft) 100,00 %
11.06.2019 06:52 12,8 C 11,7 C 11,7 C 96 % 1012,2 hPa 0,0 l/m 0 min 0 min 25 W/m 12,9 km/h (3 Bft) 100,00 %
11.06.2019 06:54 12,8 C 11,7 C 11,7 C 96 % 1012,2 hPa 0,0 l/m 0 min 0 min 27 W/m 9,7 km/h (2 Bft) 97,56 %
11.06.2019 06:56 12,7 C 11,7 C 11,7 C 96 % 1012,3 hPa 0,0 l/m 0 min 0 min 31 W/m 6,4 km/h (2 Bft) 100,00 %
11.06.2019 06:58 12,7 C 11,7 C 11,7 C 96 % 1012,3 hPa 0,0 l/m 0 min 0 min 34 W/m 9,7 km/h (2 Bft) 100,00 %
11.06.2019 07:00 12,7 C 11,7 C 11,7 C 96 % 1012,2 hPa 0,0 l/m 0 min 0 min 37 W/m 9,7 km/h (2 Bft) 100,00 %
11.06.2019 07:02 12,7 C 11,7 C 11,7 C 96 % 1012,2 hPa 0,0 l/m 0 min 0 min 40 W/m 6,4 km/h (2 Bft) 100,00 %
11.06.2019 07:04 12,7 C 11,7 C 11,7 C 96 % 1012,2 hPa 0,0 l/m 0 min 2 min 41 W/m 3,2 km/h (1 Bft) 100,00 %
11.06.2019 07:06 12,7 C 11,7 C 11,7 C 96 % 1012,2 hPa 0,0 l/m 0 min 0 min 44 W/m 9,7 km/h (2 Bft) 100,00 %
11.06.2019 07:08 12,7 C 11,7 C 11,7 C 96 % 1012,2 hPa 0,0 l/m 0 min 0 min 47 W/m 6,4 km/h (2 Bft) 100,00 %
11.06.2019 07:10 12,7 C 11,7 C 11,7 C 95 % 1012,3 hPa 0,0 l/m 0 min 0 min 48 W/m 6,4 km/h (2 Bft) 95,83 %
11.06.2019 07:12 12,7 C 11,7 C 11,7 C 95 % 1012,3 hPa 0,0 l/m 0 min 0 min 50 W/m 9,7 km/h (2 Bft) 97,96 %
11.06.2019 07:14 12,6 C 11,7 C 11,7 C 95 % 1012,2 hPa 0,0 l/m 0 min 0 min 54 W/m 16,1 km/h (3 Bft) 95,83 %
11.06.2019 07:16 12,6 C 11,7 C 11,7 C 95 % 1012,2 hPa 0,0 l/m 0 min 0 min 56 W/m 12,9 km/h (3 Bft) 97,87 %
11.06.2019 07:18 12,6 C 11,7 C 11,7 C 95 % 1012,3 hPa 0,0 l/m 0 min 0 min 58 W/m 6,4 km/h (2 Bft) 97,83 %
11.06.2019 07:20 12,6 C 11,7 C 11,7 C 95 % 1012,3 hPa 0,0 l/m 0 min 0 min 58 W/m 3,2 km/h (1 Bft) 95,35 %
11.06.2019 07:22 12,6 C 11,7 C 11,7 C 95 % 1012,2 hPa 0,0 l/m 0 min 0 min 58 W/m 6,4 km/h (2 Bft) 97,92 %
11.06.2019 07:24 12,6 C 11,7 C 11,7 C 95 % 1012,2 hPa 0,0 l/m 0 min 0 min 56 W/m 3,2 km/h (1 Bft) 97,96 %
11.06.2019 07:26 12,6 C 11,7 C 11,7 C 95 % 1012,2 hPa 0,0 l/m 0 min 0 min 56 W/m 6,4 km/h (2 Bft) 97,92 %
11.06.2019 07:28 12,6 C 11,7 C 11,7 C 95 % 1012,1 hPa 0,0 l/m 0 min 0 min 56 W/m 0,0 km/h (0 Bft) 97,87 %
11.06.2019 07:30 12,6 C 11,7 C 11,7 C 95 % 1012,1 hPa 0,0 l/m 0 min 0 min 56 W/m 3,2 km/h (1 Bft) 97,83 %
11.06.2019 07:32 12,6 C 11,7 C 11,7 C 95 % 1012,0 hPa 0,0 l/m 0 min 0 min 56 W/m 3,2 km/h (1 Bft) 97,73 %
11.06.2019 07:34 12,6 C 11,7 C 11,7 C 95 % 1012,0 hPa 0,0 l/m 0 min 0 min 56 W/m 3,2 km/h (1 Bft) 97,92 %
11.06.2019 07:36 12,6 C 11,7 C 11,7 C 95 % 1012,0 hPa 0,0 l/m 0 min 0 min 57 W/m 6,4 km/h (2 Bft) 95,92 %
11.06.2019 07:38 12,6 C 11,7 C 11,7 C 95 % 1012,0 hPa 0,0 l/m 0 min 0 min 59 W/m 3,2 km/h (1 Bft) 97,87 %
11.06.2019 07:40 12,6 C 11,7 C 11,7 C 95 % 1012,0 hPa 0,0 l/m 0 min 0 min 62 W/m 3,2 km/h (1 Bft) 97,87 %
11.06.2019 07:42 12,6 C 11,7 C 11,7 C 95 % 1012,0 hPa 0,0 l/m 0 min 0 min 66 W/m 3,2 km/h (1 Bft) 97,56 %
11.06.2019 07:44 12,6 C 11,7 C 11,7 C 95 % 1012,1 hPa 0,0 l/m 0 min 0 min 70 W/m 3,2 km/h (1 Bft) 97,96 %
11.06.2019 07:46 12,6 C 11,7 C 11,7 C 95 % 1012,1 hPa 0,0 l/m 0 min 0 min 73 W/m 3,2 km/h (1 Bft) 97,92 %
11.06.2019 07:48 12,7 C 11,7 C 11,7 C 95 % 1012,1 hPa 0,0 l/m 0 min 0 min 74 W/m 6,4 km/h (2 Bft) 97,96 %
11.06.2019 07:50 12,6 C 11,7 C 11,7 C 95 % 1012,1 hPa 0,0 l/m 0 min 0 min 74 W/m 12,9 km/h (3 Bft) 97,87 %
11.06.2019 07:52 12,6 C 11,7 C 11,7 C 95 % 1012,2 hPa 0,0 l/m 0 min 0 min 76 W/m 6,4 km/h (2 Bft) 97,87 %
11.06.2019 07:54 12,6 C 11,7 C 11,7 C 95 % 1012,3 hPa 0,0 l/m 0 min 0 min 80 W/m 6,4 km/h (2 Bft) 92,68 %
11.06.2019 07:56 12,6 C 11,7 C 11,7 C 95 % 1012,3 hPa 0,0 l/m 0 min 0 min 83 W/m 9,7 km/h (2 Bft) 93,88 %
11.06.2019 07:58 12,6 C 11,7 C 11,7 C 95 % 1012,2 hPa 0,0 l/m 0 min 0 min 84 W/m 9,7 km/h (2 Bft) 97,96 %
11.06.2019 08:00 12,6 C 12,2 C 11,7 C 95 % 1012,2 hPa 0,0 l/m 0 min 0 min 90 W/m 3,2 km/h (1 Bft) 100,00 %
11.06.2019 08:02 12,6 C 12,2 C 11,7 C 95 % 1012,1 hPa 0,0 l/m 0 min 0 min 96 W/m 3,2 km/h (1 Bft) 100,00 %
11.06.2019 08:04 12,7 C 12,2 C 11,7 C 95 % 1012,2 hPa 0,0 l/m 0 min 0 min 100 W/m 9,7 km/h (2 Bft) 97,14 %
11.06.2019 08:06 12,7 C 12,2 C 11,7 C 95 % 1012,2 hPa 0,0 l/m 0 min 0 min 109 W/m 9,7 km/h (2 Bft) 98,36 %
11.06.2019 08:08 12,7 C 12,2 C 12,2 C 95 % 1012,3 hPa 0,0 l/m 0 min 0 min 115 W/m 9,7 km/h (2 Bft) 97,83 %
11.06.2019 08:10 12,7 C 12,2 C 12,2 C 95 % 1012,3 hPa 0,0 l/m 0 min 0 min 118 W/m 6,4 km/h (2 Bft) 97,87 %
11.06.2019 08:12 12,7 C 12,2 C 12,2 C 95 % 1012,3 hPa 0,0 l/m 0 min 0 min 121 W/m 6,4 km/h (2 Bft) 95,74 %
11.06.2019 08:14 12,7 C 12,8 C 12,2 C 95 % 1012,3 hPa 0,0 l/m 0 min 0 min 129 W/m 6,4 km/h (2 Bft) 95,74 %
11.06.2019 08:16 12,7 C 12,8 C 12,2 C 95 % 1012,4 hPa 0,0 l/m 0 min 0 min 128 W/m 6,4 km/h (2 Bft) 95,74 %
11.06.2019 08:18 12,8 C 12,8 C 12,2 C 95 % 1012,3 hPa 0,0 l/m 0 min 0 min 117 W/m 6,4 km/h (2 Bft) 97,87 %
11.06.2019 08:20 12,8 C 12,8 C 12,2 C 95 % 1012,2 hPa 0,0 l/m 0 min 0 min 110 W/m 6,4 km/h (2 Bft) 97,83 %
11.06.2019 08:22 12,8 C 12,2 C 12,2 C 94 % 1012,2 hPa 0,0 l/m 0 min 0 min 106 W/m 6,4 km/h (2 Bft) 97,87 %
11.06.2019 08:24 12,8 C 12,8 C 12,2 C 94 % 1012,1 hPa 0,0 l/m 0 min 0 min 99 W/m 3,2 km/h (1 Bft) 95,74 %
11.06.2019 08:26 12,8 C 12,2 C 12,2 C 94 % 1012,3 hPa 0,0 l/m 0 min 0 min 100 W/m 16,1 km/h (3 Bft) 97,87 %
11.06.2019 08:28 12,8 C 12,2 C 12,2 C 94 % 1012,3 hPa 0,0 l/m 0 min 0 min 106 W/m 6,4 km/h (2 Bft) 97,87 %
11.06.2019 08:30 12,8 C 12,2 C 12,2 C 94 % 1012,3 hPa 0,0 l/m 0 min 0 min 119 W/m 9,7 km/h (2 Bft) 97,87 %
11.06.2019 08:32 12,8 C 12,8 C 12,2 C 94 % 1012,3 hPa 0,0 l/m 0 min 0 min 132 W/m 0,0 km/h (0 Bft) 97,83 %
11.06.2019 08:34 12,8 C 12,8 C 12,2 C 94 % 1012,1 hPa 0,0 l/m 0 min 0 min 143 W/m 0,0 km/h (0 Bft) 96,30 %
11.06.2019 08:36 12,9 C 12,8 C 12,8 C 94 % 1012,2 hPa 0,0 l/m 0 min 0 min 153 W/m 0,0 km/h (0 Bft) 97,87 %
11.06.2019 08:38 12,9 C 12,8 C 12,2 C 94 % 1012,1 hPa 0,0 l/m 0 min 0 min 163 W/m 3,2 km/h (1 Bft) 97,83 %
11.06.2019 08:40 12,9 C 12,8 C 12,2 C 94 % 1012,2 hPa 0,0 l/m 0 min 0 min 160 W/m 6,4 km/h (2 Bft) 97,87 %
11.06.2019 08:42 12,9 C 13,3 C 12,8 C 94 % 1012,1 hPa 0,0 l/m 0 min 0 min 151 W/m 9,7 km/h (2 Bft) 95,74 %
11.06.2019 08:44 12,9 C 12,8 C 12,2 C 94 % 1012,2 hPa 0,0 l/m 0 min 0 min 149 W/m 3,2 km/h (1 Bft) 95,74 %
11.06.2019 08:46 12,9 C 12,8 C 12,8 C 94 % 1012,2 hPa 0,0 l/m 0 min 0 min 142 W/m 3,2 km/h (1 Bft) 97,87 %
11.06.2019 08:48 13,0 C 13,3 C 12,8 C 94 % 1012,1 hPa 0,0 l/m 0 min 0 min 139 W/m 3,2 km/h (1 Bft) 97,87 %
11.06.2019 08:50 13,0 C 13,3 C 12,8 C 94 % 1012,0 hPa 0,0 l/m 0 min 0 min 142 W/m 3,2 km/h (1 Bft) 97,83 %
11.06.2019 08:52 13,1 C 12,8 C 12,2 C 93 % 1012,0 hPa 0,0 l/m 0 min 0 min 144 W/m 6,4 km/h (2 Bft) 93,62 %
11.06.2019 08:54 13,1 C 12,8 C 12,2 C 93 % 1012,1 hPa 0,0 l/m 0 min 0 min 136 W/m 3,2 km/h (1 Bft) 97,87 %
11.06.2019 08:56 13,1 C 12,8 C 12,2 C 93 % 1012,3 hPa 0,0 l/m 0 min 0 min 127 W/m 3,2 km/h (1 Bft) 97,87 %
11.06.2019 08:58 13,1 C 12,8 C 12,2 C 93 % 1012,3 hPa 0,0 l/m 0 min 0 min 126 W/m 6,4 km/h (2 Bft) 95,74 %
11.06.2019 09:00 13,1 C 12,8 C 12,2 C 93 % 1012,3 hPa 0,0 l/m 0 min 0 min 135 W/m 3,2 km/h (1 Bft) 93,62 %
11.06.2019 09:02 13,1 C 12,8 C 12,2 C 93 % 1012,3 hPa 0,0 l/m 0 min 0 min 145 W/m 6,4 km/h (2 Bft) 93,48 %
11.06.2019 09:04 13,1 C 12,8 C 12,2 C 93 % 1012,3 hPa 0,0 l/m 0 min 0 min 149 W/m 6,4 km/h (2 Bft) 97,87 %
11.06.2019 09:06 13,1 C 12,8 C 12,2 C 93 % 1012,4 hPa 0,0 l/m 0 min 0 min 150 W/m 6,4 km/h (2 Bft) 97,87 %
11.06.2019 09:08 13,1 C 12,8 C 12,2 C 92 % 1012,4 hPa 0,0 l/m 0 min 0 min 153 W/m 16,1 km/h (3 Bft) 97,87 %
11.06.2019 09:10 13,1 C 12,8 C 12,2 C 92 % 1012,3 hPa 0,0 l/m 0 min 0 min 156 W/m 3,2 km/h (1 Bft) 97,87 %
11.06.2019 09:12 13,1 C 12,8 C 12,2 C 92 % 1012,3 hPa 0,0 l/m 0 min 0 min 154 W/m 3,2 km/h (1 Bft) 97,87 %
11.06.2019 09:14 13,2 C 12,8 C 12,2 C 92 % 1012,3 hPa 0,0 l/m 0 min 0 min 149 W/m 6,4 km/h (2 Bft) 95,65 %
11.06.2019 09:16 13,2 C 12,8 C 12,2 C 92 % 1012,4 hPa 0,0 l/m 0 min 0 min 145 W/m 0,0 km/h (0 Bft) 97,87 %
11.06.2019 09:18 13,2 C 13,3 C 12,2 C 92 % 1012,4 hPa 0,0 l/m 0 min 0 min 139 W/m 3,2 km/h (1 Bft) 95,74 %
11.06.2019 09:20 13,2 C 12,8 C 12,2 C 91 % 1012,3 hPa 0,0 l/m 0 min 0 min 143 W/m 6,4 km/h (2 Bft) 97,87 %
11.06.2019 09:22 13,2 C 13,3 C 12,2 C 91 % 1012,4 hPa 0,0 l/m 0 min 0 min 148 W/m 0,0 km/h (0 Bft) 97,87 %
11.06.2019 09:24 13,2 C 13,3 C 12,2 C 91 % 1012,3 hPa 0,0 l/m 0 min 0 min 161 W/m 3,2 km/h (1 Bft) 97,83 %
11.06.2019 09:26 13,2 C 13,3 C 12,8 C 91 % 1012,3 hPa 0,0 l/m 0 min 0 min 178 W/m 0,0 km/h (0 Bft) 100,00 %
11.06.2019 09:28 13,3 C 13,9 C 12,8 C 91 % 1012,4 hPa 0,0 l/m 0 min 0 min 198 W/m 6,4 km/h (2 Bft) 97,87 %
11.06.2019 09:30 13,3 C 13,9 C 12,8 C 91 % 1012,4 hPa 0,0 l/m 0 min 0 min 213 W/m 6,4 km/h (2 Bft) 97,87 %
11.06.2019 09:32 13,3 C 13,9 C 12,8 C 91 % 1012,3 hPa 0,0 l/m 0 min 0 min 214 W/m 16,1 km/h (3 Bft) 97,87 %
11.06.2019 09:34 13,3 C 14,4 C 12,8 C 91 % 1012,3 hPa 0,0 l/m 0 min 0 min 212 W/m 9,7 km/h (2 Bft) 97,87 %
11.06.2019 09:36 13,4 C 14,4 C 12,8 C 91 % 1012,4 hPa 0,0 l/m 0 min 0 min 205 W/m 3,2 km/h (1 Bft) 95,65 %
11.06.2019 09:38 13,4 C 14,4 C 12,8 C 90 % 1012,5 hPa 0,0 l/m 0 min 0 min 200 W/m 3,2 km/h (1 Bft) 93,62 %
11.06.2019 09:40 13,4 C 14,4 C 13,3 C 90 % 1012,5 hPa 0,0 l/m 0 min 0 min 196 W/m 3,2 km/h (1 Bft) 97,87 %
11.06.2019 09:42 13,5 C 15,0 C 13,3 C 91 % 1012,6 hPa 0,0 l/m 0 min 0 min 191 W/m 6,4 km/h (2 Bft) 97,87 %
11.06.2019 09:44 13,5 C 15,0 C 13,9 C 91 % 1012,6 hPa 0,0 l/m 0 min 0 min 189 W/m 6,4 km/h (2 Bft) 97,87 %
11.06.2019 09:46 13,6 C 14,4 C 13,9 C 91 % 1012,6 hPa 0,0 l/m 0 min 0 min 206 W/m 6,4 km/h (2 Bft) 95,74 %
11.06.2019 09:48 13,6 C 15,0 C 13,9 C 90 % 1012,6 hPa 0,0 l/m 0 min 0 min 226 W/m 6,4 km/h (2 Bft) 95,65 %
11.06.2019 09:50 13,6 C 15,6 C 13,9 C 90 % 1012,5 hPa 0,0 l/m 0 min 0 min 232 W/m 9,7 km/h (2 Bft) 97,87 %
11.06.2019 09:52 13,6 C 15,6 C 14,4 C 90 % 1012,5 hPa 0,0 l/m 0 min 0 min 232 W/m 9,7 km/h (2 Bft) 95,74 %
11.06.2019 09:54 13,7 C 15,0 C 14,4 C 90 % 1012,5 hPa 0,0 l/m 0 min 0 min 224 W/m 9,7 km/h (2 Bft) 97,87 %
11.06.2019 09:56 13,7 C 15,6 C 14,4 C 89 % 1012,5 hPa 0,0 l/m 0 min 0 min 221 W/m 6,4 km/h (2 Bft) 95,74 %
11.06.2019 09:58 13,7 C 15,6 C 14,4 C 90 % 1012,5 hPa 0,0 l/m 0 min 0 min 216 W/m 6,4 km/h (2 Bft) 95,74 %
11.06.2019 10:00 13,8 C 15,6 C 15,0 C 89 % 1012,5 hPa 0,0 l/m 0 min 0 min 207 W/m 6,4 km/h (2 Bft) 97,83 %
11.06.2019 10:02 13,8 C 15,6 C 14,4 C 89 % 1012,5 hPa 0,0 l/m 0 min 0 min 215 W/m 6,4 km/h (2 Bft) 97,87 %
11.06.2019 10:04 13,8 C 15,6 C 15,0 C 88 % 1012,5 hPa 0,0 l/m 0 min 0 min 274 W/m 12,9 km/h (3 Bft) 95,74 %
11.06.2019 10:06 13,8 C 16,7 C 16,1 C 88 % 1012,5 hPa 0,0 l/m 0 min 0 min 318 W/m 9,7 km/h (2 Bft) 97,87 %
11.06.2019 10:08 13,9 C 18,9 C 17,8 C 88 % 1012,5 hPa 0,0 l/m 0 min 0 min 318 W/m 9,7 km/h (2 Bft) 95,74 %
11.06.2019 10:10 14,1 C 21,7 C 20,6 C 88 % 1012,6 hPa 0,0 l/m 2 min 0 min 366 W/m 9,7 km/h (2 Bft) 97,87 %
11.06.2019 10:12 14,2 C 22,2 C 21,1 C 88 % 1012,6 hPa 0,0 l/m 2 min 0 min 780 W/m 0,0 km/h (0 Bft) 97,83 %
11.06.2019 10:14 14,3 C 22,8 C 21,7 C 88 % 1012,6 hPa 0,0 l/m 2 min 0 min 742 W/m 0,0 km/h (0 Bft) 97,87 %
11.06.2019 10:16 14,4 C 23,3 C 21,7 C 88 % 1012,5 hPa 0,0 l/m 2 min 0 min 735 W/m 0,0 km/h (0 Bft) 97,87 %
11.06.2019 10:18 14,6 C 22,8 C 21,1 C 87 % 1012,5 hPa 0,0 l/m 2 min 0 min 605 W/m 0,0 km/h (0 Bft) 97,87 %
11.06.2019 10:20 14,7 C 21,7 C 20,0 C 86 % 1012,5 hPa 0,0 l/m 2 min 0 min 575 W/m 0,0 km/h (0 Bft) 97,87 %
11.06.2019 10:22 14,9 C 22,2 C 20,6 C 86 % 1012,4 hPa 0,0 l/m 0 min 0 min 230 W/m 0,0 km/h (0 Bft) 97,83 %
11.06.2019 10:24 15,1 C 22,2 C 21,1 C 86 % 1012,2 hPa 0,0 l/m 0 min 0 min 230 W/m 0,0 km/h (0 Bft) 97,87 %
11.06.2019 10:26 15,3 C 23,9 C 22,8 C 86 % 1012,2 hPa 0,0 l/m 0 min 0 min 230 W/m 0,0 km/h (0 Bft) 100,00 %
11.06.2019 10:28 15,6 C 24,4 C 23,3 C 86 % 1012,1 hPa 0,0 l/m 2 min 0 min 807 W/m 0,0 km/h (0 Bft) 97,87 %
11.06.2019 10:30 15,8 C 25,6 C 25,0 C 86 % 1012,0 hPa 0,0 l/m 2 min 0 min 689 W/m 0,0 km/h (0 Bft) 97,87 %
11.06.2019 10:32 15,9 C 26,1 C 25,0 C 84 % 1011,9 hPa 0,0 l/m 2 min 0 min 830 W/m 0,0 km/h (0 Bft) 100,00 %
11.06.2019 10:34 16,1 C 25,6 C 25,0 C 84 % 1011,9 hPa 0,0 l/m 2 min 0 min 818 W/m 0,0 km/h (0 Bft) 100,00 %
11.06.2019 10:36 16,2 C 25,6 C 25,0 C 83 % 1012,0 hPa 0,0 l/m 2 min 0 min 807 W/m 9,7 km/h (2 Bft) 100,00 %
11.06.2019 10:38 16,4 C 24,4 C 23,9 C 83 % 1012,0 hPa 0,0 l/m 2 min 0 min 823 W/m 3,2 km/h (1 Bft) 97,87 %
11.06.2019 10:40 16,6 C 25,6 C 25,0 C 84 % 1012,1 hPa 0,0 l/m 2 min 0 min 801 W/m 6,4 km/h (2 Bft) 100,00 %
11.06.2019 10:42 16,7 C 25,6 C 25,0 C 82 % 1012,1 hPa 0,0 l/m 2 min 0 min 770 W/m 9,7 km/h (2 Bft) 100,00 %
11.06.2019 10:44 16,8 C 26,1 C 26,1 C 82 % 1012,0 hPa 0,0 l/m 2 min 0 min 801 W/m 6,4 km/h (2 Bft) 100,00 %
11.06.2019 10:46 17,0 C 26,1 C 26,7 C 82 % 1012,0 hPa 0,0 l/m 2 min 0 min 797 W/m 6,4 km/h (2 Bft) 100,00 %
11.06.2019 10:48 17,2 C 26,7 C 27,2 C 82 % 1012,0 hPa 0,0 l/m 2 min 0 min 819 W/m 6,4 km/h (2 Bft) 100,00 %
11.06.2019 10:50 17,4 C 27,2 C 27,2 C 80 % 1012,0 hPa 0,0 l/m 2 min 0 min 842 W/m 9,7 km/h (2 Bft) 100,00 %
11.06.2019 10:52 17,4 C 26,1 C 26,1 C 79 % 1012,0 hPa 0,0 l/m 2 min 0 min 854 W/m 9,7 km/h (2 Bft) 100,00 %
11.06.2019 10:54 17,6 C 26,1 C 26,7 C 78 % 1012,0 hPa 0,0 l/m 2 min 0 min 878 W/m 9,7 km/h (2 Bft) 100,00 %
11.06.2019 10:56 17,7 C 26,1 C 26,7 C 78 % 1012,1 hPa 0,0 l/m 2 min 0 min 907 W/m 6,4 km/h (2 Bft) 100,00 %
11.06.2019 10:58 17,7 C 26,1 C 25,6 C 78 % 1012,1 hPa 0,0 l/m 2 min 0 min 886 W/m 3,2 km/h (1 Bft) 100,00 %
11.06.2019 11:00 17,8 C 27,2 C 25,6 C 76 % 1012,2 hPa 0,0 l/m 2 min 0 min 896 W/m 6,4 km/h (2 Bft) 97,87 %
11.06.2019 11:02 17,9 C 26,7 C 25,6 C 76 % 1012,2 hPa 0,0 l/m 2 min 0 min 892 W/m 6,4 km/h (2 Bft) 100,00 %
11.06.2019 11:04 17,9 C 25,6 C 25,0 C 75 % 1012,2 hPa 0,0 l/m 2 min 0 min 877 W/m 6,4 km/h (2 Bft) 100,00 %
11.06.2019 11:06 17,9 C 26,7 C 26,1 C 75 % 1012,2 hPa 0,0 l/m 2 min 0 min 905 W/m 12,9 km/h (3 Bft) 100,00 %
11.06.2019 11:08 18,1 C 27,2 C 26,1 C 75 % 1012,2 hPa 0,0 l/m 2 min 0 min 978 W/m 6,4 km/h (2 Bft) 100,00 %
11.06.2019 11:10 18,1 C 26,7 C 26,1 C 74 % 1012,2 hPa 0,0 l/m 2 min 0 min 1002 W/m 9,7 km/h (2 Bft) 100,00 %
11.06.2019 11:12 18,2 C 26,7 C 26,1 C 74 % 1012,2 hPa 0,0 l/m 2 min 0 min 999 W/m 9,7 km/h (2 Bft) 100,00 %
11.06.2019 11:14 18,3 C 26,7 C 26,7 C 74 % 1012,3 hPa 0,0 l/m 2 min 0 min 1026 W/m 12,9 km/h (3 Bft) 100,00 %
11.06.2019 11:16 18,4 C 27,8 C 26,7 C 73 % 1012,4 hPa 0,0 l/m 2 min 0 min 1033 W/m 6,4 km/h (2 Bft) 100,00 %
11.06.2019 11:18 18,5 C 27,8 C 27,8 C 73 % 1012,4 hPa 0,0 l/m 2 min 0 min 1030 W/m 6,4 km/h (2 Bft) 100,00 %
11.06.2019 11:20 18,6 C 28,9 C 28,3 C 73 % 1012,4 hPa 0,0 l/m 2 min 0 min 1029 W/m 6,4 km/h (2 Bft) 100,00 %
11.06.2019 11:22 18,8 C 27,2 C 26,7 C 75 % 1012,4 hPa 0,0 l/m 2 min 0 min 1025 W/m 6,4 km/h (2 Bft) 100,00 %
11.06.2019 11:24 18,9 C 27,2 C 26,7 C 74 % 1012,4 hPa 0,0 l/m 2 min 0 min 1030 W/m 3,2 km/h (1 Bft) 100,00 %
11.06.2019 11:26 19,0 C 28,9 C 27,8 C 74 % 1012,5 hPa 0,0 l/m 2 min 0 min 1028 W/m 3,2 km/h (1 Bft) 100,00 %
11.06.2019 11:28 19,2 C 28,9 C 28,3 C 74 % 1012,5 hPa 0,0 l/m 2 min 0 min 1035 W/m 6,4 km/h (2 Bft) 100,00 %
11.06.2019 11:30 19,3 C 28,9 C 28,3 C 73 % 1012,4 hPa 0,0 l/m 2 min 0 min 995 W/m 3,2 km/h (1 Bft) 95,74 %
11.06.2019 11:32 19,3 C 25,6 C 24,4 C 72 % 1012,4 hPa 0,0 l/m 2 min 0 min 914 W/m 3,2 km/h (1 Bft) 97,87 %
11.06.2019 11:34 19,2 C 23,3 C 22,8 C 72 % 1012,4 hPa 0,0 l/m 0 min 0 min 245 W/m 3,2 km/h (1 Bft) 100,00 %
11.06.2019 11:36 19,2 C 21,7 C 22,2 C 71 % 1012,4 hPa 0,0 l/m 0 min 0 min 279 W/m 12,9 km/h (3 Bft) 100,00 %
11.06.2019 11:38 19,1 C 21,1 C 21,7 C 73 % 1012,3 hPa 0,0 l/m 0 min 0 min 275 W/m 6,4 km/h (2 Bft) 100,00 %
11.06.2019 11:40 19,1 C 20,6 C 21,1 C 73 % 1012,3 hPa 0,0 l/m 0 min 0 min 197 W/m 3,2 km/h (1 Bft) 100,00 %
11.06.2019 11:42 18,9 C 20,0 C 20,0 C 73 % 1012,4 hPa 0,0 l/m 0 min 0 min 155 W/m 3,2 km/h (1 Bft) 100,00 %
11.06.2019 11:44 18,7 C 18,9 C 18,9 C 71 % 1012,4 hPa 0,0 l/m 0 min 0 min 160 W/m 3,2 km/h (1 Bft) 100,00 %
11.06.2019 11:46 18,7 C 18,9 C 18,3 C 72 % 1012,3 hPa 0,0 l/m 0 min 0 min 180 W/m 3,2 km/h (1 Bft) 100,00 %
11.06.2019 11:48 18,6 C 22,8 C 22,2 C 73 % 1012,2 hPa 0,0 l/m 2 min 0 min 510 W/m 3,2 km/h (1 Bft) 97,87 %
11.06.2019 11:50 18,5 C 23,9 C 23,9 C 73 % 1012,2 hPa 0,0 l/m 2 min 0 min 947 W/m 6,4 km/h (2 Bft) 97,83 %
11.06.2019 11:52 18,6 C 26,7 C 26,1 C 72 % 1012,3 hPa 0,0 l/m 2 min 0 min 953 W/m 3,2 km/h (1 Bft) 95,74 %
11.06.2019 11:54 18,6 C 27,2 C 26,7 C 71 % 1012,3 hPa 0,0 l/m 2 min 0 min 977 W/m 9,7 km/h (2 Bft) 97,87 %
11.06.2019 11:56 18,7 C 26,7 C 27,2 C 70 % 1012,3 hPa 0,0 l/m 2 min 0 min 986 W/m 9,7 km/h (2 Bft) 97,87 %
11.06.2019 11:58 18,8 C 27,2 C 27,8 C 71 % 1012,2 hPa 0,0 l/m 2 min 0 min 997 W/m 12,9 km/h (3 Bft) 97,87 %
11.06.2019 12:00 18,8 C 25,6 C 26,1 C 69 % 1012,2 hPa 0,0 l/m 2 min 0 min 1012 W/m 12,9 km/h (3 Bft) 97,87 %
11.06.2019 12:02 18,9 C 24,4 C 26,1 C 69 % 1012,2 hPa 0,0 l/m 2 min 0 min 988 W/m 12,9 km/h (3 Bft) 97,22 %
11.06.2019 12:04 19,1 C 26,1 C 27,2 C 70 % 1012,2 hPa 0,0 l/m 2 min 0 min 1005 W/m 3,2 km/h (1 Bft) 97,83 %
11.06.2019 12:07 19,2 C 23,3 C 23,3 C 71 % 1012,2 hPa 0,0 l/m 3 min 0 min 463 W/m 6,4 km/h (2 Bft) 94,12 %
11.06.2019 12:08 19,3 C 22,8 C 22,2 C 71 % 1012,2 hPa 0,0 l/m 0 min 0 min 190 W/m 9,7 km/h (2 Bft) 100,00 %
11.06.2019 12:10 19,3 C 23,3 C 22,8 C 70 % 1012,2 hPa 0,0 l/m 0 min 0 min 224 W/m 9,7 km/h (2 Bft) 95,74 %
11.06.2019 12:12 19,4 C 26,1 C 25,6 C 72 % 1012,2 hPa 0,0 l/m 2 min 0 min 901 W/m 9,7 km/h (2 Bft) 93,62 %
11.06.2019 12:14 19,4 C 26,7 C 26,7 C 70 % 1012,4 hPa 0,0 l/m 2 min 0 min 1006 W/m 9,7 km/h (2 Bft) 93,62 %
11.06.2019 12:16 19,4 C 27,8 C 27,8 C 68 % 1012,3 hPa 0,0 l/m 2 min 0 min 1031 W/m 9,7 km/h (2 Bft) 91,30 %
11.06.2019 12:18 19,4 C 28,3 C 28,3 C 69 % 1012,3 hPa 0,0 l/m 2 min 0 min 1030 W/m 9,7 km/h (2 Bft) 95,74 %
11.06.2019 12:20 19,6 C 26,1 C 26,1 C 69 % 1012,3 hPa 0,0 l/m 2 min 0 min 1030 W/m 6,4 km/h (2 Bft) 95,74 %
11.06.2019 12:22 19,6 C 23,9 C 22,8 C 69 % 1012,3 hPa 0,0 l/m 0 min 0 min 386 W/m 3,2 km/h (1 Bft) 95,74 %
11.06.2019 12:24 19,6 C 22,8 C 21,7 C 70 % 1012,3 hPa 0,0 l/m 0 min 0 min 184 W/m 3,2 km/h (1 Bft) 95,74 %
11.06.2019 12:26 19,6 C 23,3 C 22,8 C 71 % 1012,3 hPa 0,0 l/m 0 min 0 min 236 W/m 3,2 km/h (1 Bft) 93,62 %
11.06.2019 12:28 19,6 C 26,1 C 25,6 C 71 % 1012,3 hPa 0,0 l/m 2 min 0 min 751 W/m 6,4 km/h (2 Bft) 95,65 %
11.06.2019 12:30 19,6 C 23,3 C 22,8 C 69 % 1012,3 hPa 0,0 l/m 2 min 0 min 580 W/m 9,7 km/h (2 Bft) 91,49 %
11.06.2019 12:32 19,6 C 22,2 C 21,7 C 67 % 1012,4 hPa 0,0 l/m 0 min 0 min 250 W/m 6,4 km/h (2 Bft) 89,36 %
11.06.2019 12:34 19,5 C 22,8 C 22,8 C 65 % 1012,3 hPa 0,0 l/m 2 min 0 min 449 W/m 9,7 km/h (2 Bft) 93,62 %
11.06.2019 12:36 19,6 C 25,6 C 25,6 C 67 % 1012,3 hPa 0,0 l/m 2 min 0 min 564 W/m 6,4 km/h (2 Bft) 96,55 %
11.06.2019 12:38 19,7 C 26,1 C 27,2 C 66 % 1012,2 hPa 0,0 l/m 2 min 0 min 1108 W/m 9,7 km/h (2 Bft) 95,74 %
11.06.2019 12:40 19,8 C 27,8 C 28,3 C 68 % 1012,1 hPa 0,0 l/m 2 min 0 min 1089 W/m 12,9 km/h (3 Bft) 97,14 %
11.06.2019 12:42 19,9 C 28,9 C 30,0 C 70 % 1012,1 hPa 0,0 l/m 2 min 0 min 1045 W/m 6,4 km/h (2 Bft) 93,62 %
11.06.2019 12:44 20,0 C 26,1 C 26,7 C 70 % 1012,1 hPa 0,0 l/m 2 min 0 min 559 W/m 9,7 km/h (2 Bft) 93,62 %
11.06.2019 12:46 20,1 C 27,2 C 27,8 C 69 % 1012,1 hPa 0,0 l/m 2 min 0 min 592 W/m 9,7 km/h (2 Bft) 97,87 %
11.06.2019 12:48 20,2 C 24,4 C 24,4 C 68 % 1012,0 hPa 0,0 l/m 2 min 0 min 685 W/m 9,7 km/h (2 Bft) 95,74 %
11.06.2019 12:50 20,2 C 25,6 C 25,6 C 68 % 1012,1 hPa 0,0 l/m 0 min 0 min 306 W/m 9,7 km/h (2 Bft) 95,65 %
11.06.2019 12:52 20,3 C 25,0 C 25,6 C 69 % 1012,2 hPa 0,0 l/m 0 min 0 min 306 W/m 6,4 km/h (2 Bft) 95,74 %
11.06.2019 12:54 20,3 C 23,3 C 23,9 C 68 % 1012,2 hPa 0,0 l/m 0 min 0 min 244 W/m 6,4 km/h (2 Bft) 93,62 %
11.06.2019 12:56 20,3 C 22,2 C 22,2 C 67 % 1012,3 hPa 0,0 l/m 0 min 0 min 273 W/m 6,4 km/h (2 Bft) 96,15 %
11.06.2019 12:58 20,3 C 22,2 C 21,7 C 68 % 1012,3 hPa 0,0 l/m 0 min 0 min 283 W/m 6,4 km/h (2 Bft) 97,87 %
11.06.2019 13:00 20,3 C 21,7 C 20,6 C 68 % 1012,3 hPa 0,0 l/m 0 min 0 min 238 W/m 9,7 km/h (2 Bft) 97,87 %
11.06.2019 13:02 20,3 C 20,6 C 20,6 C 66 % 1012,4 hPa 0,0 l/m 0 min 0 min 217 W/m 9,7 km/h (2 Bft) 95,65 %
11.06.2019 13:04 20,2 C 22,8 C 22,8 C 67 % 1012,4 hPa 0,0 l/m 0 min 0 min 273 W/m 6,4 km/h (2 Bft) 97,87 %
11.06.2019 13:06 20,3 C 26,1 C 26,1 C 67 % 1012,4 hPa 0,0 l/m 2 min 0 min 1070 W/m 3,2 km/h (1 Bft) 95,74 %
11.06.2019 13:08 20,3 C 28,3 C 28,3 C 67 % 1012,4 hPa 0,0 l/m 2 min 0 min 1091 W/m 6,4 km/h (2 Bft) 95,74 %
11.06.2019 13:10 20,4 C 27,2 C 27,8 C 65 % 1012,4 hPa 0,0 l/m 2 min 0 min 1099 W/m 16,1 km/h (3 Bft) 97,87 %
11.06.2019 13:12 20,5 C 26,1 C 26,7 C 63 % 1012,3 hPa 0,0 l/m 2 min 0 min 737 W/m 19,3 km/h (3 Bft) 95,65 %
11.06.2019 13:14 20,6 C 26,1 C 27,2 C 66 % 1012,4 hPa 0,0 l/m 2 min 0 min 743 W/m 16,1 km/h (3 Bft) 97,87 %
11.06.2019 13:16 20,7 C 27,8 C 28,9 C 68 % 1012,3 hPa 0,0 l/m 2 min 0 min 838 W/m 9,7 km/h (2 Bft) 97,87 %
11.06.2019 13:18 20,8 C 29,4 C 29,4 C 67 % 1012,4 hPa 0,0 l/m 2 min 0 min 998 W/m 6,4 km/h (2 Bft) 97,87 %
11.06.2019 13:20 21,0 C 30,0 C 30,0 C 65 % 1012,4 hPa 0,0 l/m 2 min 0 min 1097 W/m 9,7 km/h (2 Bft) 97,87 %
11.06.2019 13:22 21,1 C 29,4 C 30,6 C 62 % 1012,5 hPa 0,0 l/m 2 min 0 min 1126 W/m 9,7 km/h (2 Bft) 97,87 %
11.06.2019 13:24 21,2 C 28,9 C 31,1 C 64 % 1012,5 hPa 0,0 l/m 2 min 0 min 1075 W/m 12,9 km/h (3 Bft) 97,83 %
11.06.2019 13:26 21,3 C 27,8 C 30,0 C 62 % 1012,5 hPa 0,0 l/m 2 min 0 min 1057 W/m 9,7 km/h (2 Bft) 95,74 %
11.06.2019 13:28 21,3 C 26,7 C 30,0 C 60 % 1012,5 hPa 0,0 l/m 2 min 0 min 1045 W/m 12,9 km/h (3 Bft) 97,87 %
11.06.2019 13:30 21,3 C 27,8 C 30,6 C 60 % 1012,4 hPa 0,0 l/m 2 min 0 min 1050 W/m 12,9 km/h (3 Bft) 95,74 %
11.06.2019 13:32 21,4 C 27,2 C 30,0 C 59 % 1012,5 hPa 0,0 l/m 2 min 0 min 1072 W/m 9,7 km/h (2 Bft) 97,87 %
11.06.2019 13:34 21,5 C 28,9 C 31,7 C 65 % 1012,5 hPa 0,0 l/m 2 min 0 min 1061 W/m 6,4 km/h (2 Bft) 95,74 %
11.06.2019 13:36 21,6 C 28,9 C 30,6 C 62 % 1012,5 hPa 0,0 l/m 2 min 0 min 1088 W/m 9,7 km/h (2 Bft) 97,83 %
11.06.2019 13:38 21,7 C 29,4 C 31,1 C 63 % 1012,6 hPa 0,0 l/m 2 min 0 min 1075 W/m 9,7 km/h (2 Bft) 97,87 %
11.06.2019 13:40 21,8 C 29,4 C 31,1 C 61 % 1012,6 hPa 0,0 l/m 2 min 0 min 1076 W/m 9,7 km/h (2 Bft) 97,87 %
11.06.2019 13:42 21,9 C 28,9 C 30,6 C 59 % 1012,5 hPa 0,0 l/m 2 min 0 min 1069 W/m 6,4 km/h (2 Bft) 97,87 %
11.06.2019 13:44 21,9 C 28,3 C 30,6 C 59 % 1012,6 hPa 0,0 l/m 2 min 0 min 1066 W/m 16,1 km/h (3 Bft) 97,87 %
11.06.2019 13:46 22,1 C 25,6 C 27,8 C 58 % 1012,5 hPa 0,0 l/m 2 min 0 min 1010 W/m 12,9 km/h (3 Bft) 97,87 %
11.06.2019 13:48 22,1 C 25,0 C 26,7 C 59 % 1012,6 hPa 0,0 l/m 0 min 0 min 230 W/m 12,9 km/h (3 Bft) 97,83 %
11.06.2019 13:50 22,1 C 26,7 C 28,3 C 61 % 1012,6 hPa 0,0 l/m 2 min 0 min 508 W/m 6,4 km/h (2 Bft) 97,87 %
11.06.2019 13:52 22,1 C 27,8 C 29,4 C 60 % 1012,5 hPa 0,0 l/m 2 min 0 min 1002 W/m 9,7 km/h (2 Bft) 97,87 %
11.06.2019 13:54 22,2 C 28,9 C 30,0 C 60 % 1012,5 hPa 0,0 l/m 2 min 0 min 1019 W/m 3,2 km/h (1 Bft) 97,87 %
11.06.2019 13:56 22,2 C 27,2 C 30,0 C 58 % 1012,5 hPa 0,0 l/m 2 min 0 min 1019 W/m 6,4 km/h (2 Bft) 97,87 %
11.06.2019 13:58 22,1 C 27,8 C 30,0 C 57 % 1012,5 hPa 0,0 l/m 2 min 0 min 1007 W/m 6,4 km/h (2 Bft) 95,74 %
11.06.2019 14:00 22,1 C 27,8 C 30,0 C 59 % 1012,5 hPa 0,0 l/m 2 min 0 min 1010 W/m 9,7 km/h (2 Bft) 97,83 %
11.06.2019 14:02 22,2 C 27,8 C 30,0 C 59 % 1012,5 hPa 0,0 l/m 2 min 0 min 1008 W/m 12,9 km/h (3 Bft) 97,87 %
11.06.2019 14:04 22,2 C 28,3 C 31,1 C 61 % 1012,5 hPa 0,0 l/m 2 min 0 min 1004 W/m 3,2 km/h (1 Bft) 97,87 %
11.06.2019 14:06 22,4 C 28,3 C 30,6 C 60 % 1012,5 hPa 0,0 l/m 2 min 0 min 1006 W/m 9,7 km/h (2 Bft) 97,87 %
11.06.2019 14:08 22,4 C 26,7 C 30,0 C 57 % 1012,5 hPa 0,0 l/m 2 min 0 min 1020 W/m 16,1 km/h (3 Bft) 100,00 %
11.06.2019 14:10 22,4 C 27,2 C 30,6 C 57 % 1012,4 hPa 0,0 l/m 2 min 0 min 1024 W/m 9,7 km/h (2 Bft) 100,00 %
11.06.2019 14:12 22,4 C 28,3 C 31,1 C 59 % 1012,4 hPa 0,0 l/m 2 min 0 min 1012 W/m 6,4 km/h (2 Bft) 100,00 %
11.06.2019 14:14 22,5 C 29,4 C 31,7 C 60 % 1012,4 hPa 0,0 l/m 2 min 0 min 1031 W/m 9,7 km/h (2 Bft) 100,00 %
11.06.2019 14:16 22,6 C 30,0 C 31,7 C 62 % 1012,4 hPa 0,0 l/m 2 min 0 min 1016 W/m 6,4 km/h (2 Bft) 100,00 %
11.06.2019 14:18 22,7 C 30,6 C 32,2 C 62 % 1012,3 hPa 0,0 l/m 2 min 0 min 1003 W/m 6,4 km/h (2 Bft) 100,00 %
11.06.2019 14:20 22,8 C 30,0 C 32,2 C 60 % 1012,3 hPa 0,0 l/m 2 min 0 min 996 W/m 9,7 km/h (2 Bft) 100,00 %
11.06.2019 14:22 22,9 C 29,4 C 32,2 C 59 % 1012,4 hPa 0,0 l/m 2 min 0 min 992 W/m 6,4 km/h (2 Bft) 100,00 %
11.06.2019 14:24 23,0 C 30,0 C 31,7 C 59 % 1012,4 hPa 0,0 l/m 2 min 0 min 980 W/m 3,2 km/h (1 Bft) 100,00 %
11.06.2019 14:26 23,1 C 30,0 C 31,7 C 58 % 1012,4 hPa 0,0 l/m 2 min 0 min 985 W/m 9,7 km/h (2 Bft) 100,00 %
11.06.2019 14:28 23,1 C 29,4 C 32,2 C 58 % 1012,4 hPa 0,0 l/m 2 min 0 min 992 W/m 6,4 km/h (2 Bft) 97,87 %
11.06.2019 14:30 23,1 C 29,4 C 31,7 C 57 % 1012,4 hPa 0,0 l/m 2 min 0 min 1001 W/m 9,7 km/h (2 Bft) 100,00 %
11.06.2019 14:32 23,2 C 29,4 C 31,7 C 59 % 1012,4 hPa 0,0 l/m 2 min 0 min 1014 W/m 6,4 km/h (2 Bft) 100,00 %
11.06.2019 14:34 23,3 C 30,0 C 31,7 C 59 % 1012,4 hPa 0,0 l/m 2 min 0 min 1007 W/m 3,2 km/h (1 Bft) 97,87 %
11.06.2019 14:36 23,4 C 30,0 C 31,1 C 57 % 1012,4 hPa 0,0 l/m 2 min 0 min 1003 W/m 22,5 km/h (4 Bft) 100,00 %
11.06.2019 14:38 23,4 C 27,2 C 28,3 C 55 % 1012,4 hPa 0,0 l/m 2 min 0 min 1007 W/m 16,1 km/h (3 Bft) 97,87 %
11.06.2019 14:40 23,3 C 26,7 C 27,2 C 53 % 1012,3 hPa 0,0 l/m 2 min 0 min 993 W/m 9,7 km/h (2 Bft) 97,87 %
11.06.2019 14:42 23,3 C 27,2 C 26,7 C 55 % 1012,2 hPa 0,0 l/m 2 min 0 min 887 W/m 6,4 km/h (2 Bft) 95,74 %
11.06.2019 14:44 23,3 C 27,8 C 26,7 C 58 % 1012,2 hPa 0,0 l/m 2 min 0 min 775 W/m 9,7 km/h (2 Bft) 97,87 %
11.06.2019 14:46 23,4 C 28,9 C 27,2 C 57 % 1012,0 hPa 0,0 l/m 2 min 0 min 1059 W/m 3,2 km/h (1 Bft) 97,83 %
11.06.2019 14:48 23,5 C 29,4 C 28,3 C 58 % 1012,1 hPa 0,0 l/m 2 min 0 min 1037 W/m 6,4 km/h (2 Bft) 97,87 %
11.06.2019 14:50 23,5 C 26,1 C 26,7 C 53 % 1012,1 hPa 0,0 l/m 2 min 0 min 834 W/m 9,7 km/h (2 Bft) 95,74 %
11.06.2019 14:52 23,4 C 26,1 C 25,6 C 55 % 1012,1 hPa 0,0 l/m 2 min 0 min 722 W/m 9,7 km/h (2 Bft) 97,87 %
11.06.2019 14:54 23,4 C 26,7 C 25,6 C 55 % 1012,1 hPa 0,0 l/m 2 min 0 min 700 W/m 6,4 km/h (2 Bft) 95,74 %
11.06.2019 14:56 23,5 C 27,2 C 25,0 C 57 % 1012,0 hPa 0,0 l/m 2 min 0 min 879 W/m 9,7 km/h (2 Bft) 95,74 %
11.06.2019 14:58 23,5 C 27,2 C 23,9 C 54 % 1012,0 hPa 0,0 l/m 2 min 0 min 958 W/m 6,4 km/h (2 Bft) 95,65 %
11.06.2019 15:00 23,5 C 28,3 C 23,3 C 56 % 1012,1 hPa 0,0 l/m 2 min 0 min 1062 W/m 3,2 km/h (1 Bft) 95,74 %
11.06.2019 15:02 23,5 C 27,8 C 23,3 C 55 % 1012,2 hPa 0,0 l/m 2 min 0 min 926 W/m 16,1 km/h (3 Bft) 95,74 %
11.06.2019 15:04 23,6 C 27,8 C 22,8 C 56 % 1012,1 hPa 0,0 l/m 2 min 0 min 938 W/m 6,4 km/h (2 Bft) 93,62 %
11.06.2019 15:06 23,6 C 27,8 C 22,8 C 55 % 1012,1 hPa 0,0 l/m 2 min 0 min 942 W/m 12,9 km/h (3 Bft) 95,74 %
11.06.2019 15:08 23,6 C 28,3 C 23,3 C 58 % 1012,2 hPa 0,0 l/m 2 min 0 min 870 W/m 9,7 km/h (2 Bft) 95,74 %
11.06.2019 15:10 23,6 C 28,9 C 23,3 C 57 % 1012,1 hPa 0,0 l/m 2 min 0 min 954 W/m 19,3 km/h (3 Bft) 95,65 %
11.06.2019 15:12 23,6 C 27,8 C 22,8 C 55 % 1012,1 hPa 0,0 l/m 2 min 0 min 947 W/m 9,7 km/h (2 Bft) 95,74 %
11.06.2019 15:14 23,6 C 27,8 C 22,8 C 54 % 1012,2 hPa 0,0 l/m 2 min 0 min 949 W/m 16,1 km/h (3 Bft) 95,74 %
11.06.2019 15:16 23,6 C 27,2 C 23,3 C 55 % 1012,2 hPa 0,0 l/m 2 min 0 min 929 W/m 6,4 km/h (2 Bft) 95,74 %
11.06.2019 15:18 23,7 C 27,2 C 23,3 C 55 % 1012,1 hPa 0,0 l/m 2 min 0 min 942 W/m 12,9 km/h (3 Bft) 97,87 %
11.06.2019 15:20 23,7 C 27,8 C 23,3 C 56 % 1012,1 hPa 0,0 l/m 2 min 0 min 957 W/m 9,7 km/h (2 Bft) 97,87 %
11.06.2019 15:22 23,7 C 27,2 C 22,8 C 55 % 1012,2 hPa 0,0 l/m 2 min 0 min 953 W/m 9,7 km/h (2 Bft) 97,83 %
11.06.2019 15:24 23,8 C 28,3 C 22,8 C 55 % 1012,1 hPa 0,0 l/m 2 min 0 min 965 W/m 6,4 km/h (2 Bft) 95,74 %
11.06.2019 15:26 23,8 C 27,8 C 22,2 C 55 % 1012,1 hPa 0,0 l/m 2 min 0 min 937 W/m 6,4 km/h (2 Bft) 97,87 %
11.06.2019 15:28 23,8 C 26,1 C 21,7 C 53 % 1012,1 hPa 0,0 l/m 2 min 0 min 752 W/m 6,4 km/h (2 Bft) 95,74 %
11.06.2019 15:30 23,8 C 25,0 C 21,7 C 53 % 1012,0 hPa 0,0 l/m 0 min 0 min 260 W/m 3,2 km/h (1 Bft) 97,87 %
11.06.2019 15:32 23,8 C 23,9 C 21,7 C 53 % 1012,1 hPa 0,0 l/m 0 min 0 min 259 W/m 6,4 km/h (2 Bft) 95,74 %
11.06.2019 15:34 23,7 C 23,3 C 21,1 C 52 % 1012,1 hPa 0,0 l/m 0 min 0 min 286 W/m 6,4 km/h (2 Bft) 95,65 %
11.06.2019 15:36 23,6 C 22,2 C 20,6 C 51 % 1012,0 hPa 0,0 l/m 0 min 0 min 306 W/m 9,7 km/h (2 Bft) 97,87 %
11.06.2019 15:38 23,6 C 23,3 C 21,1 C 51 % 1012,0 hPa 0,0 l/m 2 min 0 min 676 W/m 6,4 km/h (2 Bft) 97,87 %
11.06.2019 15:40 23,5 C 23,3 C 21,1 C 53 % 1012,1 hPa 0,0 l/m 2 min 0 min 767 W/m 6,4 km/h (2 Bft) 97,87 %
11.06.2019 15:42 23,4 C 23,3 C 21,1 C 56 % 1012,1 hPa 0,0 l/m 0 min 0 min 230 W/m 12,9 km/h (3 Bft) 95,74 %
11.06.2019 15:44 23,3 C 23,9 C 21,1 C 56 % 1012,1 hPa 0,0 l/m 2 min 0 min 462 W/m 12,9 km/h (3 Bft) 97,87 %
11.06.2019 15:46 23,3 C 25,6 C 21,7 C 56 % 1012,1 hPa 0,0 l/m 2 min 0 min 846 W/m 9,7 km/h (2 Bft) 97,83 %
11.06.2019 15:48 23,3 C 26,1 C 21,7 C 57 % 1012,1 hPa 0,0 l/m 2 min 0 min 868 W/m 3,2 km/h (1 Bft) 100,00 %
11.06.2019 15:50 23,3 C 26,7 C 21,7 C 57 % 1012,0 hPa 0,0 l/m 2 min 0 min 906 W/m 6,4 km/h (2 Bft) 97,87 %
11.06.2019 15:52 23,4 C 26,1 C 21,7 C 58 % 1012,1 hPa 0,0 l/m 2 min 0 min 853 W/m 6,4 km/h (2 Bft) 100,00 %
11.06.2019 15:54 23,4 C 25,6 C 21,7 C 56 % 1012,1 hPa 0,0 l/m 2 min 0 min 858 W/m 9,7 km/h (2 Bft) 100,00 %
11.06.2019 15:56 23,4 C 25,6 C 21,7 C 56 % 1012,1 hPa 0,0 l/m 2 min 0 min 735 W/m 9,7 km/h (2 Bft) 100,00 %
11.06.2019 15:58 23,4 C 26,1 C 21,7 C 58 % 1012,1 hPa 0,0 l/m 2 min 0 min 856 W/m 6,4 km/h (2 Bft) 97,87 %
11.06.2019 16:00 23,4 C 25,6 C 22,2 C 57 % 1012,1 hPa 0,0 l/m 2 min 0 min 898 W/m 12,9 km/h (3 Bft) 100,00 %
11.06.2019 16:02 23,5 C 25,6 C 22,2 C 56 % 1012,1 hPa 0,0 l/m 2 min 0 min 760 W/m 9,7 km/h (2 Bft) 100,00 %
11.06.2019 16:04 23,6 C 26,1 C 22,2 C 57 % 1012,2 hPa 0,0 l/m 2 min 0 min 846 W/m 3,2 km/h (1 Bft) 100,00 %
11.06.2019 16:06 23,7 C 26,1 C 22,8 C 59 % 1012,2 hPa 0,0 l/m 2 min 0 min 894 W/m 9,7 km/h (2 Bft) 97,87 %
11.06.2019 16:08 23,7 C 25,6 C 22,8 C 58 % 1012,1 hPa 0,0 l/m 2 min 0 min 875 W/m 9,7 km/h (2 Bft) 97,83 %
11.06.2019 16:10 23,8 C 25,6 C 22,8 C 55 % 1012,1 hPa 0,0 l/m 2 min 0 min 881 W/m 9,7 km/h (2 Bft) 100,00 %
11.06.2019 16:12 23,8 C 25,0 C 22,8 C 54 % 1012,2 hPa 0,0 l/m 2 min 0 min 861 W/m 9,7 km/h (2 Bft) 97,87 %
11.06.2019 16:14 23,9 C 24,4 C 22,8 C 54 % 1012,2 hPa 0,0 l/m 2 min 0 min 815 W/m 6,4 km/h (2 Bft) 97,87 %
11.06.2019 16:16 23,9 C 23,3 C 22,2 C 52 % 1012,2 hPa 0,0 l/m 2 min 0 min 639 W/m 9,7 km/h (2 Bft) 97,87 %
11.06.2019 16:18 23,8 C 22,2 C 21,7 C 51 % 1012,1 hPa 0,0 l/m 2 min 0 min 544 W/m 19,3 km/h (3 Bft) 100,00 %
11.06.2019 16:20 23,7 C 21,1 C 21,1 C 50 % 1012,1 hPa 0,0 l/m 2 min 0 min 749 W/m 19,3 km/h (3 Bft) 100,00 %
11.06.2019 16:22 23,6 C 22,8 C 21,7 C 52 % 1012,0 hPa 0,0 l/m 2 min 0 min 733 W/m 6,4 km/h (2 Bft) 100,00 %
11.06.2019 16:24 23,5 C 23,3 C 21,7 C 55 % 1011,9 hPa 0,0 l/m 2 min 0 min 502 W/m 12,9 km/h (3 Bft) 97,87 %
11.06.2019 16:26 23,5 C 23,3 C 21,7 C 56 % 1012,0 hPa 0,0 l/m 2 min 0 min 432 W/m 6,4 km/h (2 Bft) 95,74 %
11.06.2019 16:28 23,4 C 23,3 C 21,7 C 55 % 1011,9 hPa 0,0 l/m 2 min 0 min 459 W/m 19,3 km/h (3 Bft) 97,83 %
11.06.2019 16:30 23,3 C 23,3 C 21,7 C 55 % 1011,8 hPa 0,0 l/m 2 min 0 min 380 W/m 16,1 km/h (3 Bft) 97,87 %
11.06.2019 16:32 23,2 C 23,3 C 21,7 C 57 % 1011,9 hPa 0,0 l/m 2 min 0 min 390 W/m 9,7 km/h (2 Bft) 97,92 %
11.06.2019 16:34 23,2 C 23,3 C 21,7 C 56 % 1011,9 hPa 0,0 l/m 2 min 0 min 373 W/m 6,4 km/h (2 Bft) 97,87 %
11.06.2019 16:36 23,1 C 23,3 C 21,7 C 57 % 1011,9 hPa 0,0 l/m 2 min 0 min 383 W/m 6,4 km/h (2 Bft) 95,74 %
11.06.2019 16:38 23,1 C 23,3 C 21,7 C 57 % 1011,9 hPa 0,0 l/m 2 min 0 min 406 W/m 9,7 km/h (2 Bft) 95,65 %
11.06.2019 16:40 23,0 C 23,3 C 21,7 C 56 % 1011,9 hPa 0,0 l/m 2 min 0 min 417 W/m 9,7 km/h (2 Bft) 97,87 %
11.06.2019 16:42 22,9 C 23,3 C 21,7 C 59 % 1011,8 hPa 0,0 l/m 2 min 0 min 438 W/m 6,4 km/h (2 Bft) 97,87 %
11.06.2019 16:44 22,9 C 23,3 C 21,1 C 57 % 1011,8 hPa 0,0 l/m 2 min 0 min 443 W/m 6,4 km/h (2 Bft) 97,87 %
11.06.2019 16:46 22,9 C 23,3 C 21,1 C 58 % 1011,8 hPa 0,0 l/m 2 min 0 min 391 W/m 6,4 km/h (2 Bft) 97,87 %
11.06.2019 16:48 22,8 C 22,8 C 21,1 C 57 % 1011,7 hPa 0,0 l/m 0 min 0 min 328 W/m 6,4 km/h (2 Bft) 97,87 %
11.06.2019 16:50 22,8 C 22,8 C 21,1 C 59 % 1011,8 hPa 0,0 l/m 2 min 0 min 478 W/m 9,7 km/h (2 Bft) 95,65 %
11.06.2019 16:52 22,8 C 23,3 C 21,1 C 59 % 1011,8 hPa 0,0 l/m 2 min 0 min 533 W/m 3,2 km/h (1 Bft) 97,87 %
11.06.2019 16:54 22,8 C 23,3 C 21,1 C 57 % 1011,9 hPa 0,0 l/m 2 min 0 min 428 W/m 9,7 km/h (2 Bft) 97,87 %
11.06.2019 16:56 22,7 C 22,2 C 20,6 C 55 % 1011,8 hPa 0,0 l/m 0 min 0 min 282 W/m 6,4 km/h (2 Bft) 97,87 %
11.06.2019 16:58 22,7 C 22,2 C 20,6 C 54 % 1011,8 hPa 0,0 l/m 0 min 0 min 202 W/m 9,7 km/h (2 Bft) 97,87 %
11.06.2019 17:00 22,7 C 22,2 C 20,6 C 54 % 1011,8 hPa 0,0 l/m 2 min 0 min 369 W/m 3,2 km/h (1 Bft) 97,87 %
11.06.2019 17:02 22,7 C 21,7 C 20,6 C 56 % 1011,8 hPa 0,0 l/m 2 min 0 min 414 W/m 6,4 km/h (2 Bft) 97,83 %
11.06.2019 17:04 22,6 C 21,7 C 20,6 C 56 % 1011,9 hPa 0,0 l/m 0 min 0 min 270 W/m 6,4 km/h (2 Bft) 97,87 %
11.06.2019 17:06 22,5 C 21,7 C 20,6 C 56 % 1011,8 hPa 0,0 l/m 0 min 0 min 247 W/m 6,4 km/h (2 Bft) 97,87 %
11.06.2019 17:08 22,4 C 22,2 C 20,6 C 57 % 1011,8 hPa 0,0 l/m 0 min 0 min 276 W/m 6,4 km/h (2 Bft) 93,62 %
11.06.2019 17:10 22,4 C 22,2 C 21,1 C 57 % 1011,8 hPa 0,0 l/m 2 min 0 min 387 W/m 6,4 km/h (2 Bft) 95,74 %
11.06.2019 17:12 22,3 C 22,8 C 21,1 C 57 % 1011,7 hPa 0,0 l/m 2 min 0 min 504 W/m 6,4 km/h (2 Bft) 95,65 %
11.06.2019 17:14 22,3 C 23,3 C 21,1 C 59 % 1011,7 hPa 0,0 l/m 2 min 0 min 504 W/m 6,4 km/h (2 Bft) 95,74 %
11.06.2019 17:16 22,4 C 23,3 C 21,1 C 60 % 1011,7 hPa 0,0 l/m 2 min 0 min 504 W/m 6,4 km/h (2 Bft) 95,74 %
11.06.2019 17:18 22,4 C 23,3 C 21,1 C 59 % 1011,7 hPa 0,0 l/m 2 min 0 min 517 W/m 9,7 km/h (2 Bft) 95,74 %
11.06.2019 17:20 22,4 C 23,3 C 21,1 C 59 % 1011,7 hPa 0,0 l/m 2 min 0 min 625 W/m 6,4 km/h (2 Bft) 95,74 %
11.06.2019 17:22 22,5 C 23,3 C 21,1 C 59 % 1011,7 hPa 0,0 l/m 2 min 0 min 663 W/m 9,7 km/h (2 Bft) 93,62 %
11.06.2019 17:24 22,6 C 23,3 C 21,7 C 59 % 1011,8 hPa 0,0 l/m 2 min 0 min 640 W/m 6,4 km/h (2 Bft) 95,65 %
11.06.2019 17:26 22,6 C 22,8 C 21,1 C 57 % 1011,8 hPa 0,0 l/m 2 min 0 min 526 W/m 6,4 km/h (2 Bft) 97,87 %
11.06.2019 17:28 22,6 C 22,8 C 21,1 C 59 % 1011,8 hPa 0,0 l/m 0 min 0 min 298 W/m 12,9 km/h (3 Bft) 97,87 %
11.06.2019 17:30 22,6 C 22,8 C 21,1 C 58 % 1011,7 hPa 0,0 l/m 2 min 0 min 321 W/m 9,7 km/h (2 Bft) 97,87 %
11.06.2019 17:32 22,6 C 22,2 C 20,6 C 56 % 1011,5 hPa 0,0 l/m 0 min 0 min 259 W/m 6,4 km/h (2 Bft) 97,87 %
11.06.2019 17:34 22,5 C 22,2 C 20,6 C 57 % 1011,5 hPa 0,0 l/m 0 min 0 min 224 W/m 9,7 km/h (2 Bft) 97,87 %
11.06.2019 17:36 22,4 C 21,7 C 20,6 C 57 % 1011,5 hPa 0,0 l/m 0 min 0 min 232 W/m 6,4 km/h (2 Bft) 95,65 %
11.06.2019 17:38 22,4 C 21,7 C 20,6 C 57 % 1011,5 hPa 0,0 l/m 0 min 0 min 184 W/m 6,4 km/h (2 Bft) 97,87 %
11.06.2019 17:40 22,3 C 21,1 C 20,0 C 56 % 1011,6 hPa 0,0 l/m 0 min 0 min 195 W/m 9,7 km/h (2 Bft) 95,74 %
11.06.2019 17:42 22,3 C 21,1 C 20,0 C 57 % 1011,6 hPa 0,0 l/m 0 min 0 min 242 W/m 9,7 km/h (2 Bft) 95,74 %
11.06.2019 17:44 22,2 C 21,1 C 20,0 C 56 % 1011,7 hPa 0,0 l/m 0 min 0 min 163 W/m 6,4 km/h (2 Bft) 97,87 %
11.06.2019 17:46 22,2 C 21,1 C 20,0 C 57 % 1011,8 hPa 0,0 l/m 0 min 0 min 172 W/m 6,4 km/h (2 Bft) 97,87 %
11.06.2019 17:48 22,1 C 21,1 C 20,0 C 58 % 1011,8 hPa 0,0 l/m 0 min 0 min 240 W/m 12,9 km/h (3 Bft) 97,83 %
11.06.2019 17:50 22,0 C 21,1 C 20,0 C 57 % 1011,8 hPa 0,0 l/m 2 min 0 min 396 W/m 6,4 km/h (2 Bft) 97,87 %
11.06.2019 17:52 22,0 C 21,7 C 20,6 C 59 % 1011,8 hPa 0,0 l/m 2 min 0 min 537 W/m 3,2 km/h (1 Bft) 100,00 %
11.06.2019 17:54 22,0 C 22,2 C 20,6 C 60 % 1011,7 hPa 0,0 l/m 2 min 0 min 526 W/m 3,2 km/h (1 Bft) 100,00 %
11.06.2019 17:56 22,0 C 22,8 C 20,6 C 57 % 1011,7 hPa 0,0 l/m 2 min 0 min 494 W/m 6,4 km/h (2 Bft) 97,87 %
11.06.2019 17:58 22,1 C 22,8 C 21,1 C 58 % 1011,7 hPa 0,0 l/m 2 min 0 min 638 W/m 3,2 km/h (1 Bft) 100,00 %
11.06.2019 18:00 22,1 C 23,3 C 21,1 C 57 % 1011,7 hPa 0,0 l/m 2 min 0 min 610 W/m 3,2 km/h (1 Bft) 97,83 %
11.06.2019 18:02 22,2 C 23,3 C 21,1 C 55 % 1011,8 hPa 0,0 l/m 2 min 0 min 527 W/m 6,4 km/h (2 Bft) 95,74 %
11.06.2019 18:04 22,2 C 23,3 C 21,1 C 55 % 1011,8 hPa 0,0 l/m 2 min 0 min 306 W/m 6,4 km/h (2 Bft) 97,87 %
11.06.2019 18:07 22,2 C 22,2 C 21,1 C 55 % 1011,9 hPa 0,0 l/m 0 min 0 min 207 W/m 9,7 km/h (2 Bft) 96,77 %
11.06.2019 18:08 22,2 C 22,2 C 21,1 C 55 % 1011,9 hPa 0,0 l/m 0 min 0 min 177 W/m 3,2 km/h (1 Bft) 95,65 %
11.06.2019 18:10 22,2 C 21,7 C 21,1 C 56 % 1011,9 hPa 0,0 l/m 0 min 0 min 184 W/m 6,4 km/h (2 Bft) 97,87 %
11.06.2019 18:12 22,2 C 22,2 C 20,6 C 57 % 1011,9 hPa 0,0 l/m 0 min 0 min 208 W/m 3,2 km/h (1 Bft) 97,87 %
11.06.2019 18:14 22,1 C 22,2 C 20,6 C 58 % 1011,9 hPa 0,0 l/m 0 min 0 min 219 W/m 3,2 km/h (1 Bft) 97,87 %
11.06.2019 18:16 22,1 C 22,2 C 20,6 C 59 % 1011,9 hPa 0,0 l/m 0 min 0 min 196 W/m 3,2 km/h (1 Bft) 97,83 %
11.06.2019 18:18 22,1 C 21,7 C 20,6 C 59 % 1011,8 hPa 0,0 l/m 0 min 0 min 156 W/m 3,2 km/h (1 Bft) 95,74 %
11.06.2019 18:20 22,1 C 21,7 C 20,6 C 59 % 1011,9 hPa 0,0 l/m 0 min 0 min 127 W/m 3,2 km/h (1 Bft) 97,87 %
11.06.2019 18:22 22,0 C 21,1 C 20,6 C 57 % 1011,9 hPa 0,0 l/m 0 min 0 min 101 W/m 3,2 km/h (1 Bft) 97,87 %
11.06.2019 18:24 21,9 C 20,6 C 20,0 C 58 % 1012,0 hPa 0,0 l/m 0 min 0 min 90 W/m 6,4 km/h (2 Bft) 97,87 %
11.06.2019 18:26 21,8 C 20,6 C 20,0 C 57 % 1012,0 hPa 0,0 l/m 0 min 0 min 82 W/m 3,2 km/h (1 Bft) 97,87 %
11.06.2019 18:28 21,7 C 20,0 C 20,0 C 58 % 1012,1 hPa 0,0 l/m 0 min 0 min 77 W/m 0,0 km/h (0 Bft) 97,87 %
11.06.2019 18:30 21,7 C 20,0 C 19,4 C 58 % 1012,1 hPa 0,0 l/m 0 min 0 min 78 W/m 0,0 km/h (0 Bft) 97,83 %
11.06.2019 18:32 21,6 C 20,0 C 19,4 C 59 % 1012,1 hPa 0,0 l/m 0 min 0 min 84 W/m 3,2 km/h (1 Bft) 97,87 %
11.06.2019 18:34 21,6 C 20,0 C 19,4 C 59 % 1012,0 hPa 0,0 l/m 0 min 0 min 96 W/m 6,4 km/h (2 Bft) 95,74 %
11.06.2019 18:36 21,5 C 20,0 C 19,4 C 59 % 1011,9 hPa 0,0 l/m 0 min 0 min 114 W/m 6,4 km/h (2 Bft) 97,87 %
11.06.2019 18:38 21,4 C 20,0 C 19,4 C 59 % 1012,0 hPa 0,0 l/m 0 min 0 min 124 W/m 3,2 km/h (1 Bft) 97,87 %
11.06.2019 18:40 21,4 C 20,0 C 19,4 C 59 % 1012,0 hPa 0,0 l/m 0 min 0 min 115 W/m 0,0 km/h (0 Bft) 97,87 %
11.06.2019 18:42 21,3 C 20,0 C 19,4 C 59 % 1011,9 hPa 0,0 l/m 0 min 0 min 104 W/m 3,2 km/h (1 Bft) 97,83 %
11.06.2019 18:44 21,3 C 20,0 C 19,4 C 59 % 1012,0 hPa 0,0 l/m 0 min 0 min 100 W/m 3,2 km/h (1 Bft) 97,87 %
11.06.2019 18:46 21,2 C 20,0 C 19,4 C 59 % 1012,0 hPa 0,0 l/m 0 min 0 min 98 W/m 6,4 km/h (2 Bft) 97,87 %
11.06.2019 18:48 21,2 C 20,0 C 19,4 C 60 % 1011,9 hPa 0,0 l/m 0 min 0 min 97 W/m 3,2 km/h (1 Bft) 97,87 %
11.06.2019 18:50 21,2 C 20,0 C 19,4 C 60 % 1011,9 hPa 0,0 l/m 0 min 0 min 96 W/m 3,2 km/h (1 Bft) 97,87 %
11.06.2019 18:52 21,1 C 20,0 C 19,4 C 59 % 1011,8 hPa 0,0 l/m 0 min 0 min 90 W/m 6,4 km/h (2 Bft) 100,00 %
11.06.2019 18:54 21,0 C 20,0 C 19,4 C 59 % 1011,8 hPa 0,0 l/m 0 min 0 min 94 W/m 6,4 km/h (2 Bft) 97,83 %
11.06.2019 18:56 21,0 C 20,0 C 19,4 C 60 % 1011,9 hPa 0,0 l/m 0 min 0 min 103 W/m 3,2 km/h (1 Bft) 97,87 %
11.06.2019 18:58 20,9 C 20,0 C 19,4 C 60 % 1011,8 hPa 0,0 l/m 0 min 0 min 106 W/m 6,4 km/h (2 Bft) 97,87 %
11.06.2019 19:00 20,8 C 20,0 C 19,4 C 60 % 1011,8 hPa 0,0 l/m 0 min 0 min 105 W/m 3,2 km/h (1 Bft) 100,00 %
11.06.2019 19:02 20,8 C 20,0 C 19,4 C 61 % 1011,9 hPa 0,0 l/m 0 min 0 min 107 W/m 3,2 km/h (1 Bft) 100,00 %
11.06.2019 19:04 20,8 C 20,0 C 19,4 C 61 % 1011,8 hPa 0,0 l/m 0 min 0 min 113 W/m 6,4 km/h (2 Bft) 97,83 %
11.06.2019 19:06 20,7 C 20,0 C 19,4 C 61 % 1011,8 hPa 0,0 l/m 0 min 0 min 113 W/m 3,2 km/h (1 Bft) 100,00 %
11.06.2019 19:08 20,7 C 20,0 C 18,9 C 60 % 1011,8 hPa 0,0 l/m 0 min 0 min 110 W/m 6,4 km/h (2 Bft) 100,00 %
11.06.2019 19:10 20,7 C 20,0 C 18,9 C 60 % 1011,7 hPa 0,0 l/m 0 min 0 min 102 W/m 3,2 km/h (1 Bft) 100,00 %
11.06.2019 19:12 20,6 C 20,0 C 18,9 C 61 % 1011,7 hPa 0,0 l/m 0 min 0 min 102 W/m 6,4 km/h (2 Bft) 100,00 %
11.06.2019 19:14 20,6 C 20,0 C 18,9 C 61 % 1011,6 hPa 0,0 l/m 0 min 0 min 110 W/m 6,4 km/h (2 Bft) 100,00 %
11.06.2019 19:16 20,6 C 20,0 C 18,9 C 61 % 1011,5 hPa 0,0 l/m 0 min 0 min 113 W/m 3,2 km/h (1 Bft) 100,00 %
11.06.2019 19:18 20,6 C 20,0 C 18,9 C 62 % 1011,5 hPa 0,0 l/m 0 min 0 min 110 W/m 3,2 km/h (1 Bft) 100,00 %
11.06.2019 19:20 20,5 C 20,0 C 18,9 C 62 % 1011,5 hPa 0,0 l/m 0 min 0 min 107 W/m 6,4 km/h (2 Bft) 97,87 %
11.06.2019 19:22 20,5 C 20,0 C 18,9 C 63 % 1011,5 hPa 0,0 l/m 0 min 0 min 105 W/m 3,2 km/h (1 Bft) 100,00 %
11.06.2019 19:24 20,4 C 19,4 C 18,9 C 63 % 1011,5 hPa 0,0 l/m 0 min 0 min 105 W/m 3,2 km/h (1 Bft) 100,00 %
11.06.2019 19:26 20,4 C 19,4 C 18,9 C 63 % 1011,5 hPa 0,0 l/m 0 min 0 min 104 W/m 6,4 km/h (2 Bft) 100,00 %
11.06.2019 19:28 20,4 C 19,4 C 18,9 C 63 % 1011,5 hPa 0,0 l/m 0 min 0 min 107 W/m 6,4 km/h (2 Bft) 100,00 %
11.06.2019 19:30 20,3 C 19,4 C 18,9 C 63 % 1011,6 hPa 0,0 l/m 0 min 0 min 115 W/m 6,4 km/h (2 Bft) 93,62 %
11.06.2019 19:32 20,3 C 19,4 C 18,9 C 63 % 1011,5 hPa 0,0 l/m 0 min 0 min 119 W/m 3,2 km/h (1 Bft) 97,87 %
11.06.2019 19:34 20,3 C 19,4 C 18,9 C 62 % 1011,5 hPa 0,0 l/m 0 min 0 min 114 W/m 6,4 km/h (2 Bft) 100,00 %
11.06.2019 19:36 20,2 C 19,4 C 18,9 C 63 % 1011,5 hPa 0,0 l/m 0 min 0 min 107 W/m 3,2 km/h (1 Bft) 97,87 %
11.06.2019 19:38 20,2 C 19,4 C 18,3 C 63 % 1011,5 hPa 0,0 l/m 0 min 0 min 99 W/m 9,7 km/h (2 Bft) 97,87 %
11.06.2019 19:40 20,2 C 19,4 C 18,3 C 63 % 1011,5 hPa 0,0 l/m 0 min 0 min 98 W/m 9,7 km/h (2 Bft) 97,83 %
11.06.2019 19:42 20,2 C 18,9 C 18,3 C 64 % 1011,4 hPa 0,0 l/m 0 min 0 min 100 W/m 3,2 km/h (1 Bft) 97,87 %
11.06.2019 19:44 20,1 C 18,9 C 18,3 C 65 % 1011,4 hPa 0,0 l/m 0 min 0 min 110 W/m 3,2 km/h (1 Bft) 95,74 %
11.06.2019 19:46 20,1 C 18,9 C 18,3 C 65 % 1011,3 hPa 0,0 l/m 2 min 0 min 146 W/m 3,2 km/h (1 Bft) 97,87 %
11.06.2019 19:48 20,1 C 18,9 C 18,3 C 66 % 1011,4 hPa 0,0 l/m 0 min 0 min 120 W/m 9,7 km/h (2 Bft) 95,74 %
11.06.2019 19:50 20,0 C 18,9 C 18,3 C 65 % 1011,4 hPa 0,0 l/m 0 min 0 min 103 W/m 6,4 km/h (2 Bft) 95,74 %
11.06.2019 19:52 19,9 C 18,9 C 18,3 C 66 % 1011,3 hPa 0,0 l/m 0 min 0 min 96 W/m 6,4 km/h (2 Bft) 93,48 %
11.06.2019 19:54 19,9 C 18,9 C 18,3 C 66 % 1011,3 hPa 0,0 l/m 0 min 0 min 94 W/m 3,2 km/h (1 Bft) 95,74 %
11.06.2019 19:56 19,9 C 18,9 C 18,3 C 66 % 1011,3 hPa 0,0 l/m 0 min 0 min 89 W/m 0,0 km/h (0 Bft) 95,74 %
11.06.2019 19:58 19,9 C 18,9 C 17,8 C 67 % 1011,4 hPa 0,0 l/m 0 min 0 min 82 W/m 3,2 km/h (1 Bft) 95,74 %
11.06.2019 20:00 19,9 C 18,9 C 17,8 C 67 % 1011,5 hPa 0,0 l/m 0 min 0 min 71 W/m 6,4 km/h (2 Bft) 93,62 %
11.06.2019 20:02 19,8 C 18,9 C 17,8 C 67 % 1011,5 hPa 0,0 l/m 0 min 0 min 60 W/m 3,2 km/h (1 Bft) 95,65 %
11.06.2019 20:04 19,8 C 18,9 C 17,8 C 66 % 1011,6 hPa 0,0 l/m 0 min 0 min 50 W/m 3,2 km/h (1 Bft) 95,74 %
11.06.2019 20:06 19,8 C 18,9 C 17,8 C 66 % 1011,6 hPa 0,0 l/m 0 min 0 min 50 W/m 3,2 km/h (1 Bft) 95,74 %
11.06.2019 20:08 19,8 C 18,9 C 17,8 C 66 % 1011,7 hPa 0,0 l/m 0 min 0 min 48 W/m 0,0 km/h (0 Bft) 95,74 %
11.06.2019 20:10 19,8 C 18,9 C 17,8 C 67 % 1011,7 hPa 0,0 l/m 0 min 0 min 48 W/m 0,0 km/h (0 Bft) 95,74 %
11.06.2019 20:12 19,8 C 18,9 C 17,8 C 67 % 1011,7 hPa 0,0 l/m 0 min 0 min 41 W/m 6,4 km/h (2 Bft) 95,74 %
11.06.2019 20:14 19,7 C 18,9 C 17,8 C 66 % 1011,9 hPa 0,0 l/m 0 min 0 min 34 W/m 3,2 km/h (1 Bft) 95,65 %
11.06.2019 20:16 19,7 C 18,3 C 17,8 C 66 % 1012,0 hPa 0,0 l/m 0 min 0 min 30 W/m 3,2 km/h (1 Bft) 95,74 %
11.06.2019 20:18 19,7 C 18,3 C 17,8 C 67 % 1012,0 hPa 0,0 l/m 0 min 0 min 26 W/m 0,0 km/h (0 Bft) 95,74 %
11.06.2019 20:20 19,7 C 18,3 C 17,8 C 68 % 1011,9 hPa 0,0 l/m 0 min 0 min 26 W/m 3,2 km/h (1 Bft) 93,62 %
11.06.2019 20:22 19,7 C 18,3 C 17,8 C 68 % 1012,0 hPa 0,0 l/m 0 min 0 min 28 W/m 3,2 km/h (1 Bft) 95,74 %
11.06.2019 20:24 19,7 C 18,3 C 17,8 C 68 % 1012,0 hPa 0,0 l/m 0 min 0 min 30 W/m 0,0 km/h (0 Bft) 95,74 %
11.06.2019 20:26 19,6 C 18,3 C 17,8 C 68 % 1011,9 hPa 0,0 l/m 0 min 0 min 33 W/m 3,2 km/h (1 Bft) 95,65 %
11.06.2019 20:28 19,6 C 18,3 C 17,8 C 69 % 1011,9 hPa 0,0 l/m 0 min 0 min 33 W/m 0,0 km/h (0 Bft) 95,74 %
11.06.2019 20:30 19,6 C 18,3 C 17,2 C 68 % 1011,8 hPa 0,0 l/m 0 min 0 min 31 W/m 0,0 km/h (0 Bft) 95,74 %
11.06.2019 20:32 19,6 C 18,3 C 17,2 C 68 % 1011,8 hPa 0,0 l/m 0 min 0 min 28 W/m 0,0 km/h (0 Bft) 95,74 %
11.06.2019 20:34 19,5 C 18,3 C 17,2 C 68 % 1011,9 hPa 0,0 l/m 0 min 0 min 25 W/m 0,0 km/h (0 Bft) 97,87 %
11.06.2019 20:36 19,5 C 18,3 C 17,2 C 68 % 1011,9 hPa 0,0 l/m 0 min 0 min 23 W/m 3,2 km/h (1 Bft) 97,87 %
11.06.2019 20:38 19,5 C 18,3 C 17,2 C 69 % 1011,8 hPa 0,0 l/m 0 min 0 min 23 W/m 0,0 km/h (0 Bft) 97,83 %
11.06.2019 20:40 19,4 C 17,8 C 17,2 C 69 % 1011,8 hPa 0,0 l/m 0 min 0 min 22 W/m 3,2 km/h (1 Bft) 100,00 %
11.06.2019 20:42 19,4 C 17,8 C 17,2 C 69 % 1011,7 hPa 0,0 l/m 0 min 0 min 22 W/m 0,0 km/h (0 Bft) 100,00 %
11.06.2019 20:44 19,4 C 17,8 C 17,2 C 69 % 1011,6 hPa 0,0 l/m 0 min 0 min 23 W/m 3,2 km/h (1 Bft) 100,00 %
11.06.2019 20:46 19,3 C 17,8 C 17,2 C 69 % 1011,7 hPa 0,0 l/m 0 min 0 min 21 W/m 3,2 km/h (1 Bft) 97,87 %
11.06.2019 20:48 19,3 C 17,8 C 17,2 C 68 % 1011,8 hPa 0,0 l/m 0 min 0 min 21 W/m 0,0 km/h (0 Bft) 100,00 %
11.06.2019 20:50 19,2 C 17,8 C 17,2 C 68 % 1011,9 hPa 0,0 l/m 0 min 0 min 18 W/m 3,2 km/h (1 Bft) 100,00 %
11.06.2019 20:52 19,2 C 17,8 C 17,2 C 68 % 1011,8 hPa 0,0 l/m 0 min 0 min 18 W/m 0,0 km/h (0 Bft) 100,00 %
11.06.2019 20:54 19,2 C 17,8 C 17,2 C 68 % 1011,8 hPa 0,0 l/m 0 min 0 min 18 W/m 3,2 km/h (1 Bft) 100,00 %
11.06.2019 20:56 19,1 C 17,8 C 17,2 C 68 % 1011,8 hPa 0,0 l/m 0 min 0 min 18 W/m 3,2 km/h (1 Bft) 100,00 %
11.06.2019 20:58 19,1 C 17,8 C 17,2 C 68 % 1011,8 hPa 0,0 l/m 0 min 0 min 18 W/m 3,2 km/h (1 Bft) 100,00 %
11.06.2019 21:00 19,1 C 17,8 C 17,2 C 69 % 1011,7 hPa 0,0 l/m 0 min 0 min 18 W/m 3,2 km/h (1 Bft) 100,00 %
11.06.2019 21:02 19,0 C 17,8 C 17,2 C 69 % 1011,5 hPa 0,0 l/m 0 min 0 min 17 W/m 6,4 km/h (2 Bft) 97,83 %
11.06.2019 21:04 19,0 C 17,8 C 17,2 C 68 % 1011,7 hPa 0,0 l/m 0 min 0 min 14 W/m 6,4 km/h (2 Bft) 100,00 %
11.06.2019 21:06 18,9 C 17,8 C 17,2 C 68 % 1011,8 hPa 0,0 l/m 0 min 0 min 11 W/m 3,2 km/h (1 Bft) 100,00 %
11.06.2019 21:08 18,9 C 17,2 C 16,7 C 68 % 1011,8 hPa 0,0 l/m 0 min 0 min 10 W/m 6,4 km/h (2 Bft) 100,00 %
11.06.2019 21:10 18,9 C 17,2 C 16,7 C 68 % 1011,7 hPa 0,0 l/m 0 min 0 min 9 W/m 3,2 km/h (1 Bft) 100,00 %
11.06.2019 21:12 18,8 C 17,2 C 16,7 C 69 % 1011,7 hPa 0,0 l/m 0 min 0 min 8 W/m 3,2 km/h (1 Bft) 97,87 %
11.06.2019 21:14 18,8 C 17,2 C 16,7 C 69 % 1011,8 hPa 0,0 l/m 0 min 0 min 6 W/m 6,4 km/h (2 Bft) 100,00 %
11.06.2019 21:16 18,8 C 17,2 C 16,7 C 68 % 1011,8 hPa 0,0 l/m 0 min 0 min 5 W/m 3,2 km/h (1 Bft) 97,87 %
11.06.2019 21:18 18,7 C 17,2 C 16,7 C 68 % 1011,8 hPa 0,0 l/m 0 min 0 min 5 W/m 3,2 km/h (1 Bft) 97,87 %
11.06.2019 21:20 18,7 C 17,2 C 16,7 C 68 % 1011,7 hPa 0,0 l/m 0 min 0 min 5 W/m 6,4 km/h (2 Bft) 97,87 %
11.06.2019 21:22 18,7 C 17,2 C 16,7 C 68 % 1011,8 hPa 0,0 l/m 0 min 0 min 5 W/m 6,4 km/h (2 Bft) 97,87 %
11.06.2019 21:24 18,6 C 17,2 C 16,7 C 68 % 1011,7 hPa 0,0 l/m 0 min 0 min 5 W/m 3,2 km/h (1 Bft) 95,65 %
11.06.2019 21:26 18,6 C 17,2 C 16,7 C 68 % 1011,8 hPa 0,0 l/m 0 min 0 min 5 W/m 3,2 km/h (1 Bft) 97,87 %
11.06.2019 21:28 18,6 C 17,2 C 16,7 C 69 % 1011,8 hPa 0,0 l/m 0 min 0 min 5 W/m 0,0 km/h (0 Bft) 97,87 %
11.06.2019 21:30 18,6 C 17,2 C 16,7 C 69 % 1011,8 hPa 0,0 l/m 0 min 0 min 2 W/m 3,2 km/h (1 Bft) 97,87 %
11.06.2019 21:32 18,5 C 17,2 C 16,7 C 69 % 1011,7 hPa 0,0 l/m 0 min 0 min 0 W/m 0,0 km/h (0 Bft) 97,96 %
11.06.2019 21:34 18,5 C 16,7 C 16,7 C 69 % 1011,7 hPa 0,0 l/m 0 min 0 min 0 W/m 3,2 km/h (1 Bft) 97,87 %
11.06.2019 21:36 18,5 C 16,7 C 16,7 C 69 % 1011,7 hPa 0,0 l/m 0 min 0 min 0 W/m 3,2 km/h (1 Bft) 93,62 %
11.06.2019 21:38 18,4 C 16,7 C 16,7 C 69 % 1011,6 hPa 0,0 l/m 0 min 0 min 0 W/m 3,2 km/h (1 Bft) 95,74 %
11.06.2019 21:40 18,4 C 16,7 C 16,7 C 69 % 1011,8 hPa 0,0 l/m 0 min 0 min 0 W/m 0,0 km/h (0 Bft) 97,87 %
11.06.2019 21:42 18,4 C 17,2 C 16,7 C 69 % 1011,8 hPa 0,0 l/m 0 min 0 min 0 W/m 6,4 km/h (2 Bft) 97,87 %
11.06.2019 21:44 18,4 C 16,7 C 16,7 C 69 % 1011,8 hPa 0,0 l/m 0 min 0 min 0 W/m 6,4 km/h (2 Bft) 97,83 %
11.06.2019 21:46 18,3 C 17,2 C 16,7 C 69 % 1011,8 hPa 0,0 l/m 0 min 0 min 0 W/m 0,0 km/h (0 Bft) 97,87 %
11.06.2019 21:48 18,3 C 16,7 C 16,7 C 69 % 1011,7 hPa 0,0 l/m 0 min 0 min 0 W/m 3,2 km/h (1 Bft) 97,87 %
11.06.2019 21:50 18,3 C 16,7 C 16,7 C 69 % 1011,7 hPa 0,0 l/m 0 min 0 min 0 W/m 0,0 km/h (0 Bft) 95,74 %
11.06.2019 21:52 18,2 C 16,7 C 16,7 C 69 % 1011,7 hPa 0,0 l/m 0 min 0 min 0 W/m 3,2 km/h (1 Bft) 97,87 %
11.06.2019 21:54 18,2 C 16,7 C 16,7 C 69 % 1011,7 hPa 0,0 l/m 0 min 0 min 0 W/m 3,2 km/h (1 Bft) 95,74 %
11.06.2019 21:56 18,2 C 16,7 C 16,7 C 68 % 1011,8 hPa 0,0 l/m 0 min 0 min 0 W/m 3,2 km/h (1 Bft) 97,83 %
11.06.2019 21:58 18,2 C 16,7 C 16,1 C 69 % 1011,8 hPa 0,0 l/m 0 min 0 min 0 W/m 6,4 km/h (2 Bft) 97,87 %
11.06.2019 22:00 18,2 C 16,7 C 16,1 C 69 % 1011,9 hPa 0,0 l/m 0 min 0 min 0 W/m 3,2 km/h (1 Bft) 95,74 %
11.06.2019 22:02 18,1 C 17,2 C 16,1 C 69 % 1011,8 hPa 0,0 l/m 0 min 0 min 0 W/m 9,7 km/h (2 Bft) 95,74 %
11.06.2019 22:04 18,1 C 17,2 C 16,1 C 69 % 1011,8 hPa 0,0 l/m 0 min 0 min 0 W/m 9,7 km/h (2 Bft) 97,87 %
11.06.2019 22:06 18,1 C 17,2 C 16,1 C 69 % 1011,8 hPa 0,0 l/m 0 min 0 min 0 W/m 9,7 km/h (2 Bft) 97,87 %
11.06.2019 22:08 18,1 C 17,2 C 16,1 C 69 % 1011,6 hPa 0,0 l/m 0 min 0 min 0 W/m 3,2 km/h (1 Bft) 97,87 %
11.06.2019 22:10 18,1 C 17,2 C 16,1 C 69 % 1011,6 hPa 0,0 l/m 0 min 0 min 0 W/m 3,2 km/h (1 Bft) 97,83 %
11.06.2019 22:12 18,1 C 16,7 C 16,1 C 69 % 1011,6 hPa 0,0 l/m 0 min 0 min 0 W/m 3,2 km/h (1 Bft) 95,74 %
11.06.2019 22:14 18,0 C 17,2 C 16,1 C 69 % 1011,6 hPa 0,0 l/m 0 min 0 min 0 W/m 6,4 km/h (2 Bft) 97,87 %
11.06.2019 22:16 18,0 C 16,7 C 16,1 C 69 % 1011,5 hPa 0,0 l/m 0 min 0 min 0 W/m 3,2 km/h (1 Bft) 97,87 %
11.06.2019 22:18 18,0 C 16,7 C 16,1 C 70 % 1011,5 hPa 0,0 l/m 0 min 0 min 0 W/m 3,2 km/h (1 Bft) 97,87 %
11.06.2019 22:20 18,0 C 16,7 C 16,7 C 69 % 1011,5 hPa 0,0 l/m 0 min 0 min 0 W/m 6,4 km/h (2 Bft) 100,00 %
11.06.2019 22:22 18,0 C 16,7 C 16,7 C 69 % 1011,6 hPa 0,0 l/m 0 min 0 min 0 W/m 6,4 km/h (2 Bft) 97,83 %
11.06.2019 22:24 18,0 C 16,7 C 16,7 C 70 % 1011,6 hPa 0,0 l/m 0 min 0 min 0 W/m 6,4 km/h (2 Bft) 97,87 %
11.06.2019 22:26 17,9 C 16,7 C 16,1 C 70 % 1011,5 hPa 0,0 l/m 0 min 0 min 0 W/m 6,4 km/h (2 Bft) 97,87 %
11.06.2019 22:28 17,9 C 16,7 C 16,1 C 70 % 1011,5 hPa 0,0 l/m 0 min 0 min 0 W/m 3,2 km/h (1 Bft) 97,87 %
11.06.2019 22:30 17,9 C 16,7 C 16,1 C 70 % 1011,4 hPa 0,0 l/m 0 min 0 min 0 W/m 3,2 km/h (1 Bft) 100,00 %
11.06.2019 22:32 17,9 C 16,7 C 16,1 C 70 % 1011,2 hPa 0,0 l/m 0 min 0 min 0 W/m 6,4 km/h (2 Bft) 95,74 %
11.06.2019 22:34 17,9 C 16,7 C 16,1 C 70 % 1011,3 hPa 0,0 l/m 0 min 0 min 0 W/m 6,4 km/h (2 Bft) 95,65 %
11.06.2019 22:36 17,9 C 16,7 C 16,1 C 70 % 1011,4 hPa 0,0 l/m 0 min 0 min 0 W/m 3,2 km/h (1 Bft) 91,49 %
11.06.2019 22:38 17,9 C 16,7 C 16,1 C 70 % 1011,5 hPa 0,0 l/m 0 min 0 min 0 W/m 6,4 km/h (2 Bft) 95,74 %
11.06.2019 22:40 17,9 C 16,7 C 16,1 C 70 % 1011,5 hPa 0,0 l/m 0 min 0 min 0 W/m 3,2 km/h (1 Bft) 95,74 %
11.06.2019 22:42 17,9 C 16,7 C 16,1 C 70 % 1011,4 hPa 0,0 l/m 0 min 0 min 0 W/m 3,2 km/h (1 Bft) 95,74 %
11.06.2019 22:44 17,8 C 16,7 C 16,1 C 70 % 1011,3 hPa 0,0 l/m 0 min 0 min 0 W/m 3,2 km/h (1 Bft) 93,62 %
11.06.2019 22:46 17,8 C 16,7 C 16,1 C 70 % 1011,3 hPa 0,0 l/m 0 min 0 min 0 W/m 0,0 km/h (0 Bft) 95,65 %
11.06.2019 22:48 17,8 C 16,7 C 16,1 C 71 % 1011,3 hPa 0,0 l/m 0 min 0 min 0 W/m 6,4 km/h (2 Bft) 95,74 %
11.06.2019 22:50 17,8 C 16,7 C 16,1 C 71 % 1011,3 hPa 0,0 l/m 0 min 0 min 0 W/m 3,2 km/h (1 Bft) 93,62 %
11.06.2019 22:52 17,8 C 16,7 C 16,1 C 71 % 1011,3 hPa 0,0 l/m 0 min 0 min 0 W/m 3,2 km/h (1 Bft) 93,62 %
11.06.2019 22:54 17,8 C 16,7 C 16,1 C 71 % 1011,3 hPa 0,0 l/m 0 min 0 min 0 W/m 9,7 km/h (2 Bft) 93,62 %
11.06.2019 22:56 17,8 C 16,7 C 16,1 C 71 % 1011,2 hPa 0,0 l/m 0 min 0 min 0 W/m 3,2 km/h (1 Bft) 95,74 %
11.06.2019 22:58 17,8 C 16,7 C 16,1 C 71 % 1011,2 hPa 0,0 l/m 0 min 0 min 0 W/m 0,0 km/h (0 Bft) 93,48 %
11.06.2019 23:00 17,7 C 16,7 C 16,1 C 71 % 1011,2 hPa 0,0 l/m 0 min 0 min 0 W/m 6,4 km/h (2 Bft) 93,62 %
11.06.2019 23:02 17,7 C 16,7 C 16,1 C 71 % 1011,2 hPa 0,0 l/m 0 min 0 min 0 W/m 3,2 km/h (1 Bft) 95,74 %
11.06.2019 23:04 17,7 C 16,7 C 16,1 C 71 % 1011,2 hPa 0,0 l/m 0 min 0 min 0 W/m 3,2 km/h (1 Bft) 95,74 %
11.06.2019 23:06 17,7 C 16,7 C 16,1 C 71 % 1011,1 hPa 0,0 l/m 0 min 0 min 0 W/m 6,4 km/h (2 Bft) 95,74 %
11.06.2019 23:08 17,7 C 16,7 C 16,1 C 71 % 1011,2 hPa 0,0 l/m 0 min 0 min 0 W/m 3,2 km/h (1 Bft) 95,65 %
11.06.2019 23:10 17,7 C 16,7 C 16,1 C 72 % 1011,2 hPa 0,0 l/m 0 min 0 min 0 W/m 6,4 km/h (2 Bft) 93,62 %
11.06.2019 23:12 17,7 C 16,7 C 16,1 C 71 % 1011,2 hPa 0,0 l/m 0 min 0 min 0 W/m 3,2 km/h (1 Bft) 93,62 %
11.06.2019 23:14 17,6 C 16,7 C 15,6 C 71 % 1011,2 hPa 0,0 l/m 0 min 0 min 0 W/m 3,2 km/h (1 Bft) 95,74 %
11.06.2019 23:16 17,6 C 16,1 C 16,1 C 72 % 1011,1 hPa 0,0 l/m 0 min 0 min 0 W/m 3,2 km/h (1 Bft) 93,62 %
11.06.2019 23:18 17,6 C 16,1 C 15,6 C 72 % 1011,1 hPa 0,0 l/m 0 min 0 min 0 W/m 3,2 km/h (1 Bft) 95,74 %
11.06.2019 23:20 17,6 C 16,1 C 15,6 C 72 % 1011,1 hPa 0,0 l/m 0 min 0 min 0 W/m 9,7 km/h (2 Bft) 95,65 %
11.06.2019 23:22 17,6 C 16,1 C 15,6 C 72 % 1011,1 hPa 0,0 l/m 0 min 0 min 0 W/m 6,4 km/h (2 Bft) 97,87 %
11.06.2019 23:24 17,5 C 16,1 C 15,6 C 72 % 1011,1 hPa 0,0 l/m 0 min 0 min 0 W/m 3,2 km/h (1 Bft) 100,00 %
11.06.2019 23:26 17,6 C 16,1 C 15,6 C 72 % 1011,1 hPa 0,0 l/m 0 min 0 min 0 W/m 6,4 km/h (2 Bft) 100,00 %
11.06.2019 23:28 17,5 C 16,1 C 15,6 C 72 % 1011,1 hPa 0,0 l/m 0 min 0 min 0 W/m 6,4 km/h (2 Bft) 97,87 %
11.06.2019 23:30 17,4 C 16,1 C 15,6 C 72 % 1011,1 hPa 0,0 l/m 0 min 0 min 0 W/m 6,4 km/h (2 Bft) 97,87 %
11.06.2019 23:32 17,4 C 16,1 C 15,6 C 72 % 1011,0 hPa 0,0 l/m 0 min 0 min 0 W/m 3,2 km/h (1 Bft) 100,00 %
11.06.2019 23:34 17,4 C 16,1 C 15,6 C 72 % 1010,9 hPa 0,0 l/m 0 min 0 min 0 W/m 3,2 km/h (1 Bft) 100,00 %
11.06.2019 23:36 17,4 C 16,1 C 15,6 C 72 % 1010,8 hPa 0,0 l/m 0 min 0 min 0 W/m 6,4 km/h (2 Bft) 100,00 %
11.06.2019 23:38 17,4 C 16,1 C 15,6 C 72 % 1010,9 hPa 0,0 l/m 0 min 0 min 0 W/m 3,2 km/h (1 Bft) 100,00 %
11.06.2019 23:40 17,4 C 16,1 C 15,6 C 72 % 1010,8 hPa 0,0 l/m 0 min 0 min 0 W/m 9,7 km/h (2 Bft) 100,00 %
11.06.2019 23:42 17,3 C 16,1 C 15,6 C 72 % 1010,8 hPa 0,0 l/m 0 min 0 min 0 W/m 6,4 km/h (2 Bft) 100,00 %
11.06.2019 23:44 17,3 C 16,1 C 15,6 C 72 % 1010,9 hPa 0,0 l/m 0 min 0 min 0 W/m 6,4 km/h (2 Bft) 100,00 %
11.06.2019 23:46 17,3 C 16,1 C 15,6 C 72 % 1010,8 hPa 0,0 l/m 0 min 0 min 0 W/m 3,2 km/h (1 Bft) 100,00 %
11.06.2019 23:48 17,3 C 16,1 C 15,6 C 73 % 1010,8 hPa 0,0 l/m 0 min 0 min 0 W/m 9,7 km/h (2 Bft) 100,00 %
11.06.2019 23:50 17,2 C 16,1 C 15,6 C 73 % 1010,7 hPa 0,0 l/m 0 min 0 min 0 W/m 0,0 km/h (0 Bft) 100,00 %
11.06.2019 23:52 17,2 C 15,6 C 15,0 C 73 % 1010,7 hPa 0,0 l/m 0 min 0 min 0 W/m 6,4 km/h (2 Bft) 100,00 %
11.06.2019 23:54 17,2 C 15,6 C 15,0 C 73 % 1010,7 hPa 0,0 l/m 0 min 0 min 0 W/m 6,4 km/h (2 Bft) 100,00 %
11.06.2019 23:56 17,2 C 15,6 C 15,0 C 73 % 1010,7 hPa 0,0 l/m 0 min 0 min 0 W/m 3,2 km/h (1 Bft) 100,00 %
11.06.2019 23:58 17,1 C 15,6 C 15,0 C 73 % 1010,8 hPa 0,0 l/m 0 min 0 min 0 W/m 6,4 km/h (2 Bft) 100,00 %
_ Min-Zeit 07:14 06:14 05:50 16:20 00:07 - - - - 00:00 12:32
Minimum _ 12,6 C 11,7 C 11,7 C 50 % 1010,7 hPa - - - - 0,0 km/h (0 Bft) 89,36 %
_ Max-Zeit 16:14 14:18 14:18 00:40 09:42 04:32 12:07 05:10 13:22 04:08 00:08
Maximum _ 23,9 C 30,6 C 32,2 C 96 % 1012,6 hPa 0,2 l/m 3 min 5 min 1126 W/m 22,5 km/h
S-SW (4 Bft)
100,00 %
Durchschnitt _ 17,7 C 18,4 C 17,9 C 78 % 1011,8 hPa #0,6 l/m #6:27 h #1:36 h 401 W/m 6,0 km/h (2 Bft) 97,57 %
© 2019 W. Hausmann